<?xml version="1.0" encoding="UTF-8" standalone="no" ?>
<gpx xmlns="http://www.topografix.com/GPX/1/1" xmlns:xsi="http://www.w3.org/2001/XMLSchema-instance" xsi:schemaLocation="http://www.topografix.com/GPX/1/1 http://www.topografix.com/GPX/1/1/gpx.xsd" version="1.1" creator="VisuGPX - https://www.visugpx.com">
  <metadata>
    <name>Pic des redouneilles</name>
    <desc><![CDATA[Pic des redouneilles]]></desc>
  </metadata>
  <trk>
    <name><![CDATA[Rando-course]]></name>
    <cmt><![CDATA[redouneilles]]></cmt>
    <trkseg>
      <trkpt lat="42.70259" lon="1.55139">
        <ele>2038.1323242188</ele>
        <time>2012-06-10T10:51:53Z</time>
      </trkpt>
      <trkpt lat="42.70259" lon="1.55139">
        <ele>2038.1323242188</ele>
        <time>2012-06-10T10:51:54Z</time>
      </trkpt>
      <trkpt lat="42.70256" lon="1.55144">
        <ele>2039.0935058594</ele>
        <time>2012-06-10T10:51:59Z</time>
      </trkpt>
      <trkpt lat="42.7026" lon="1.5515">
        <ele>2040.5354003906</ele>
        <time>2012-06-10T10:52:06Z</time>
      </trkpt>
      <trkpt lat="42.70263" lon="1.55154">
        <ele>2042.4582519531</ele>
        <time>2012-06-10T10:52:14Z</time>
      </trkpt>
      <trkpt lat="42.70262" lon="1.55153">
        <ele>2043.4194335938</ele>
        <time>2012-06-10T10:52:33Z</time>
      </trkpt>
      <trkpt lat="42.70258" lon="1.55147">
        <ele>2043.4194335938</ele>
        <time>2012-06-10T10:52:40Z</time>
      </trkpt>
      <trkpt lat="42.70255" lon="1.55139">
        <ele>2042.9387207031</ele>
        <time>2012-06-10T10:52:47Z</time>
      </trkpt>
      <trkpt lat="42.70253" lon="1.55137">
        <ele>2042.9387207031</ele>
        <time>2012-06-10T10:52:49Z</time>
      </trkpt>
      <trkpt lat="42.70247" lon="1.55126">
        <ele>2041.4968261719</ele>
        <time>2012-06-10T10:52:58Z</time>
      </trkpt>
      <trkpt lat="42.70243" lon="1.55116">
        <ele>2039.57421875</ele>
        <time>2012-06-10T10:53:05Z</time>
      </trkpt>
      <trkpt lat="42.70237" lon="1.55111">
        <ele>2038.1323242188</ele>
        <time>2012-06-10T10:53:11Z</time>
      </trkpt>
      <trkpt lat="42.70235" lon="1.55108">
        <ele>2037.6516113281</ele>
        <time>2012-06-10T10:53:13Z</time>
      </trkpt>
      <trkpt lat="42.7023" lon="1.55102">
        <ele>2035.7290039062</ele>
        <time>2012-06-10T10:53:18Z</time>
      </trkpt>
      <trkpt lat="42.70226" lon="1.55097">
        <ele>2034.287109375</ele>
        <time>2012-06-10T10:53:24Z</time>
      </trkpt>
      <trkpt lat="42.70224" lon="1.55095">
        <ele>2033.8063964844</ele>
        <time>2012-06-10T10:53:26Z</time>
      </trkpt>
      <trkpt lat="42.70219" lon="1.55086">
        <ele>2033.3256835938</ele>
        <time>2012-06-10T10:53:33Z</time>
      </trkpt>
      <trkpt lat="42.70214" lon="1.55083">
        <ele>2032.8449707031</ele>
        <time>2012-06-10T10:53:39Z</time>
      </trkpt>
      <trkpt lat="42.70209" lon="1.55076">
        <ele>2030.4418945312</ele>
        <time>2012-06-10T10:53:45Z</time>
      </trkpt>
      <trkpt lat="42.70205" lon="1.55066">
        <ele>2028.5192871094</ele>
        <time>2012-06-10T10:53:52Z</time>
      </trkpt>
      <trkpt lat="42.70201" lon="1.55057">
        <ele>2027.0771484375</ele>
        <time>2012-06-10T10:53:59Z</time>
      </trkpt>
      <trkpt lat="42.70198" lon="1.55047">
        <ele>2025.6350097656</ele>
        <time>2012-06-10T10:54:06Z</time>
      </trkpt>
      <trkpt lat="42.70195" lon="1.55037">
        <ele>2025.154296875</ele>
        <time>2012-06-10T10:54:13Z</time>
      </trkpt>
      <trkpt lat="42.70194" lon="1.55035">
        <ele>2025.154296875</ele>
        <time>2012-06-10T10:54:14Z</time>
      </trkpt>
      <trkpt lat="42.70189" lon="1.55023">
        <ele>2025.154296875</ele>
        <time>2012-06-10T10:54:22Z</time>
      </trkpt>
      <trkpt lat="42.70187" lon="1.55011">
        <ele>2024.1931152344</ele>
        <time>2012-06-10T10:54:30Z</time>
      </trkpt>
      <trkpt lat="42.70183" lon="1.55006">
        <ele>2023.2319335938</ele>
        <time>2012-06-10T10:54:37Z</time>
      </trkpt>
      <trkpt lat="42.70182" lon="1.55001">
        <ele>2022.7512207031</ele>
        <time>2012-06-10T10:54:40Z</time>
      </trkpt>
      <trkpt lat="42.70181" lon="1.54988">
        <ele>2021.3090820312</ele>
        <time>2012-06-10T10:54:48Z</time>
      </trkpt>
      <trkpt lat="42.70181" lon="1.54982">
        <ele>2020.3479003906</ele>
        <time>2012-06-10T10:54:53Z</time>
      </trkpt>
      <trkpt lat="42.70182" lon="1.54975">
        <ele>2019.38671875</ele>
        <time>2012-06-10T10:54:59Z</time>
      </trkpt>
      <trkpt lat="42.70181" lon="1.54968">
        <ele>2017.9445800781</ele>
        <time>2012-06-10T10:55:05Z</time>
      </trkpt>
      <trkpt lat="42.70181" lon="1.54964">
        <ele>2017.4638671875</ele>
        <time>2012-06-10T10:55:10Z</time>
      </trkpt>
      <trkpt lat="42.70183" lon="1.5496">
        <ele>2016.0219726562</ele>
        <time>2012-06-10T10:55:16Z</time>
      </trkpt>
      <trkpt lat="42.70184" lon="1.54952">
        <ele>2014.0993652344</ele>
        <time>2012-06-10T10:55:23Z</time>
      </trkpt>
      <trkpt lat="42.70182" lon="1.5495">
        <ele>2014.0993652344</ele>
        <time>2012-06-10T10:55:28Z</time>
      </trkpt>
      <trkpt lat="42.70177" lon="1.54945">
        <ele>2013.6186523438</ele>
        <time>2012-06-10T10:55:34Z</time>
      </trkpt>
      <trkpt lat="42.70175" lon="1.54943">
        <ele>2014.0993652344</ele>
        <time>2012-06-10T10:55:36Z</time>
      </trkpt>
      <trkpt lat="42.70173" lon="1.54938">
        <ele>2014.580078125</ele>
        <time>2012-06-10T10:55:42Z</time>
      </trkpt>
      <trkpt lat="42.7017" lon="1.54931">
        <ele>2015.0607910156</ele>
        <time>2012-06-10T10:55:49Z</time>
      </trkpt>
      <trkpt lat="42.70166" lon="1.54923">
        <ele>2015.5415039062</ele>
        <time>2012-06-10T10:55:56Z</time>
      </trkpt>
      <trkpt lat="42.70166" lon="1.54921">
        <ele>2015.5415039062</ele>
        <time>2012-06-10T10:55:57Z</time>
      </trkpt>
      <trkpt lat="42.70164" lon="1.54916">
        <ele>2015.5415039062</ele>
        <time>2012-06-10T10:56:01Z</time>
      </trkpt>
      <trkpt lat="42.70164" lon="1.5491">
        <ele>2016.0219726562</ele>
        <time>2012-06-10T10:56:06Z</time>
      </trkpt>
      <trkpt lat="42.70163" lon="1.54904">
        <ele>2016.5026855469</ele>
        <time>2012-06-10T10:56:13Z</time>
      </trkpt>
      <trkpt lat="42.70163" lon="1.54905">
        <ele>2016.0219726562</ele>
        <time>2012-06-10T10:56:20Z</time>
      </trkpt>
      <trkpt lat="42.70164" lon="1.54909">
        <ele>2015.5415039062</ele>
        <time>2012-06-10T10:56:27Z</time>
      </trkpt>
      <trkpt lat="42.70166" lon="1.5492">
        <ele>2015.0607910156</ele>
        <time>2012-06-10T10:56:36Z</time>
      </trkpt>
      <trkpt lat="42.70168" lon="1.54926">
        <ele>2016.0219726562</ele>
        <time>2012-06-10T10:56:41Z</time>
      </trkpt>
      <trkpt lat="42.70172" lon="1.54933">
        <ele>2015.0607910156</ele>
        <time>2012-06-10T10:56:48Z</time>
      </trkpt>
      <trkpt lat="42.70176" lon="1.54938">
        <ele>2014.0993652344</ele>
        <time>2012-06-10T10:56:55Z</time>
      </trkpt>
      <trkpt lat="42.70179" lon="1.54941">
        <ele>2013.6186523438</ele>
        <time>2012-06-10T10:57:00Z</time>
      </trkpt>
      <trkpt lat="42.70185" lon="1.54945">
        <ele>2013.6186523438</ele>
        <time>2012-06-10T10:57:06Z</time>
      </trkpt>
      <trkpt lat="42.70186" lon="1.54945">
        <ele>2013.6186523438</ele>
        <time>2012-06-10T10:57:07Z</time>
      </trkpt>
      <trkpt lat="42.70195" lon="1.54942">
        <ele>2013.6186523438</ele>
        <time>2012-06-10T10:57:16Z</time>
      </trkpt>
      <trkpt lat="42.70203" lon="1.54933">
        <ele>2013.6186523438</ele>
        <time>2012-06-10T10:57:26Z</time>
      </trkpt>
      <trkpt lat="42.70204" lon="1.54928">
        <ele>2011.6960449219</ele>
        <time>2012-06-10T10:57:33Z</time>
      </trkpt>
      <trkpt lat="42.70207" lon="1.54927">
        <ele>2010.25390625</ele>
        <time>2012-06-10T10:57:42Z</time>
      </trkpt>
      <trkpt lat="42.70211" lon="1.54925">
        <ele>2009.7731933594</ele>
        <time>2012-06-10T10:57:48Z</time>
      </trkpt>
      <trkpt lat="42.70216" lon="1.5492">
        <ele>2009.2927246094</ele>
        <time>2012-06-10T10:57:54Z</time>
      </trkpt>
      <trkpt lat="42.70217" lon="1.54919">
        <ele>2009.2927246094</ele>
        <time>2012-06-10T10:57:55Z</time>
      </trkpt>
      <trkpt lat="42.70226" lon="1.54917">
        <ele>2007.8508300781</ele>
        <time>2012-06-10T10:58:05Z</time>
      </trkpt>
      <trkpt lat="42.7023" lon="1.5492">
        <ele>2006.8894042969</ele>
        <time>2012-06-10T10:58:11Z</time>
      </trkpt>
      <trkpt lat="42.70236" lon="1.54921">
        <ele>2005.9279785156</ele>
        <time>2012-06-10T10:58:17Z</time>
      </trkpt>
      <trkpt lat="42.70241" lon="1.54926">
        <ele>2004.4860839844</ele>
        <time>2012-06-10T10:58:23Z</time>
      </trkpt>
      <trkpt lat="42.70242" lon="1.54926">
        <ele>2004.0056152344</ele>
        <time>2012-06-10T10:58:24Z</time>
      </trkpt>
      <trkpt lat="42.70249" lon="1.54928">
        <ele>2003.0441894531</ele>
        <time>2012-06-10T10:58:30Z</time>
      </trkpt>
      <trkpt lat="42.70251" lon="1.54928">
        <ele>2003.0441894531</ele>
        <time>2012-06-10T10:58:32Z</time>
      </trkpt>
      <trkpt lat="42.70259" lon="1.54935">
        <ele>2000.6408691406</ele>
        <time>2012-06-10T10:58:41Z</time>
      </trkpt>
      <trkpt lat="42.70267" lon="1.5494">
        <ele>1999.1989746094</ele>
        <time>2012-06-10T10:58:48Z</time>
      </trkpt>
      <trkpt lat="42.70271" lon="1.54946">
        <ele>1997.7570800781</ele>
        <time>2012-06-10T10:58:54Z</time>
      </trkpt>
      <trkpt lat="42.70277" lon="1.54947">
        <ele>1997.7570800781</ele>
        <time>2012-06-10T10:58:59Z</time>
      </trkpt>
      <trkpt lat="42.7029" lon="1.54951">
        <ele>1997.2763671875</ele>
        <time>2012-06-10T10:59:09Z</time>
      </trkpt>
      <trkpt lat="42.70296" lon="1.54954">
        <ele>1996.7956542969</ele>
        <time>2012-06-10T10:59:16Z</time>
      </trkpt>
      <trkpt lat="42.70302" lon="1.54958">
        <ele>1996.7956542969</ele>
        <time>2012-06-10T10:59:23Z</time>
      </trkpt>
      <trkpt lat="42.70305" lon="1.5496">
        <ele>1996.7956542969</ele>
        <time>2012-06-10T10:59:26Z</time>
      </trkpt>
      <trkpt lat="42.70316" lon="1.54961">
        <ele>1995.8342285156</ele>
        <time>2012-06-10T10:59:35Z</time>
      </trkpt>
      <trkpt lat="42.70324" lon="1.5496">
        <ele>1995.353515625</ele>
        <time>2012-06-10T10:59:42Z</time>
      </trkpt>
      <trkpt lat="42.70325" lon="1.54959">
        <ele>1995.353515625</ele>
        <time>2012-06-10T10:59:43Z</time>
      </trkpt>
      <trkpt lat="42.70329" lon="1.54958">
        <ele>1993.9116210938</ele>
        <time>2012-06-10T10:59:50Z</time>
      </trkpt>
      <trkpt lat="42.70332" lon="1.54958">
        <ele>1993.4309082031</ele>
        <time>2012-06-10T10:59:55Z</time>
      </trkpt>
      <trkpt lat="42.70337" lon="1.54962">
        <ele>1992.4697265625</ele>
        <time>2012-06-10T11:00:02Z</time>
      </trkpt>
      <trkpt lat="42.7034" lon="1.54965">
        <ele>1992.4697265625</ele>
        <time>2012-06-10T11:00:07Z</time>
      </trkpt>
      <trkpt lat="42.70348" lon="1.5497">
        <ele>1992.4697265625</ele>
        <time>2012-06-10T11:00:15Z</time>
      </trkpt>
      <trkpt lat="42.7035" lon="1.5497">
        <ele>1992.4697265625</ele>
        <time>2012-06-10T11:00:16Z</time>
      </trkpt>
      <trkpt lat="42.70356" lon="1.54979">
        <ele>1992.9501953125</ele>
        <time>2012-06-10T11:00:26Z</time>
      </trkpt>
      <trkpt lat="42.70361" lon="1.54982">
        <ele>1993.9116210938</ele>
        <time>2012-06-10T11:00:33Z</time>
      </trkpt>
      <trkpt lat="42.70366" lon="1.54987">
        <ele>1993.9116210938</ele>
        <time>2012-06-10T11:00:39Z</time>
      </trkpt>
      <trkpt lat="42.70367" lon="1.54988">
        <ele>1993.4309082031</ele>
        <time>2012-06-10T11:00:40Z</time>
      </trkpt>
      <trkpt lat="42.70372" lon="1.54986">
        <ele>1991.9890136719</ele>
        <time>2012-06-10T11:00:47Z</time>
      </trkpt>
      <trkpt lat="42.70375" lon="1.54984">
        <ele>1991.0275878906</ele>
        <time>2012-06-10T11:00:53Z</time>
      </trkpt>
      <trkpt lat="42.70377" lon="1.54981">
        <ele>1990.546875</ele>
        <time>2012-06-10T11:00:59Z</time>
      </trkpt>
      <trkpt lat="42.70381" lon="1.54976">
        <ele>1989.1049804688</ele>
        <time>2012-06-10T11:01:06Z</time>
      </trkpt>
      <trkpt lat="42.70384" lon="1.54971">
        <ele>1988.6245117188</ele>
        <time>2012-06-10T11:01:12Z</time>
      </trkpt>
      <trkpt lat="42.70385" lon="1.54967">
        <ele>1988.1437988281</ele>
        <time>2012-06-10T11:01:17Z</time>
      </trkpt>
      <trkpt lat="42.70386" lon="1.54966">
        <ele>1987.6630859375</ele>
        <time>2012-06-10T11:01:38Z</time>
      </trkpt>
      <trkpt lat="42.7039" lon="1.54958">
        <ele>1986.7016601562</ele>
        <time>2012-06-10T11:01:45Z</time>
      </trkpt>
      <trkpt lat="42.70393" lon="1.54958">
        <ele>1985.7404785156</ele>
        <time>2012-06-10T11:01:49Z</time>
      </trkpt>
      <trkpt lat="42.70396" lon="1.54959">
        <ele>1985.7404785156</ele>
        <time>2012-06-10T11:01:54Z</time>
      </trkpt>
      <trkpt lat="42.70404" lon="1.54959">
        <ele>1984.779296875</ele>
        <time>2012-06-10T11:02:01Z</time>
      </trkpt>
      <trkpt lat="42.70405" lon="1.54959">
        <ele>1984.2985839844</ele>
        <time>2012-06-10T11:02:02Z</time>
      </trkpt>
      <trkpt lat="42.70412" lon="1.54955">
        <ele>1985.259765625</ele>
        <time>2012-06-10T11:02:09Z</time>
      </trkpt>
      <trkpt lat="42.70417" lon="1.54954">
        <ele>1985.7404785156</ele>
        <time>2012-06-10T11:02:13Z</time>
      </trkpt>
      <trkpt lat="42.70426" lon="1.54953">
        <ele>1987.1823730469</ele>
        <time>2012-06-10T11:02:21Z</time>
      </trkpt>
      <trkpt lat="42.70434" lon="1.5495">
        <ele>1988.6245117188</ele>
        <time>2012-06-10T11:02:29Z</time>
      </trkpt>
      <trkpt lat="42.70444" lon="1.54946">
        <ele>1988.6245117188</ele>
        <time>2012-06-10T11:02:38Z</time>
      </trkpt>
      <trkpt lat="42.70444" lon="1.54945">
        <ele>1988.6245117188</ele>
        <time>2012-06-10T11:02:39Z</time>
      </trkpt>
      <trkpt lat="42.70446" lon="1.54944">
        <ele>1988.6245117188</ele>
        <time>2012-06-10T11:02:41Z</time>
      </trkpt>
      <trkpt lat="42.7045" lon="1.54943">
        <ele>1988.1437988281</ele>
        <time>2012-06-10T11:02:45Z</time>
      </trkpt>
      <trkpt lat="42.70452" lon="1.54943">
        <ele>1987.6630859375</ele>
        <time>2012-06-10T11:02:47Z</time>
      </trkpt>
      <trkpt lat="42.70459" lon="1.54943">
        <ele>1987.6630859375</ele>
        <time>2012-06-10T11:02:54Z</time>
      </trkpt>
      <trkpt lat="42.70464" lon="1.54943">
        <ele>1988.6245117188</ele>
        <time>2012-06-10T11:03:01Z</time>
      </trkpt>
      <trkpt lat="42.70468" lon="1.54943">
        <ele>1990.06640625</ele>
        <time>2012-06-10T11:03:07Z</time>
      </trkpt>
      <trkpt lat="42.70475" lon="1.54944">
        <ele>1991.0275878906</ele>
        <time>2012-06-10T11:03:14Z</time>
      </trkpt>
      <trkpt lat="42.7048" lon="1.54948">
        <ele>1991.9890136719</ele>
        <time>2012-06-10T11:03:20Z</time>
      </trkpt>
      <trkpt lat="42.70484" lon="1.54948">
        <ele>1992.4697265625</ele>
        <time>2012-06-10T11:03:27Z</time>
      </trkpt>
      <trkpt lat="42.70491" lon="1.54947">
        <ele>1992.4697265625</ele>
        <time>2012-06-10T11:03:33Z</time>
      </trkpt>
      <trkpt lat="42.70497" lon="1.54948">
        <ele>1991.5083007812</ele>
        <time>2012-06-10T11:03:39Z</time>
      </trkpt>
      <trkpt lat="42.70501" lon="1.54947">
        <ele>1990.546875</ele>
        <time>2012-06-10T11:03:43Z</time>
      </trkpt>
      <trkpt lat="42.70508" lon="1.54952">
        <ele>1990.546875</ele>
        <time>2012-06-10T11:03:50Z</time>
      </trkpt>
      <trkpt lat="42.70509" lon="1.54952">
        <ele>1991.0275878906</ele>
        <time>2012-06-10T11:03:51Z</time>
      </trkpt>
      <trkpt lat="42.70513" lon="1.54959">
        <ele>1991.9890136719</ele>
        <time>2012-06-10T11:03:59Z</time>
      </trkpt>
      <trkpt lat="42.70516" lon="1.54963">
        <ele>1992.4697265625</ele>
        <time>2012-06-10T11:04:04Z</time>
      </trkpt>
      <trkpt lat="42.70522" lon="1.54965">
        <ele>1994.3920898438</ele>
        <time>2012-06-10T11:04:10Z</time>
      </trkpt>
      <trkpt lat="42.70527" lon="1.54966">
        <ele>1994.8728027344</ele>
        <time>2012-06-10T11:04:15Z</time>
      </trkpt>
      <trkpt lat="42.70534" lon="1.54972">
        <ele>1995.8342285156</ele>
        <time>2012-06-10T11:04:24Z</time>
      </trkpt>
      <trkpt lat="42.70536" lon="1.54975">
        <ele>1994.8728027344</ele>
        <time>2012-06-10T11:04:31Z</time>
      </trkpt>
      <trkpt lat="42.70543" lon="1.5498">
        <ele>1992.9501953125</ele>
        <time>2012-06-10T11:04:37Z</time>
      </trkpt>
      <trkpt lat="42.7055" lon="1.54985">
        <ele>1991.5083007812</ele>
        <time>2012-06-10T11:04:43Z</time>
      </trkpt>
      <trkpt lat="42.70552" lon="1.54985">
        <ele>1990.546875</ele>
        <time>2012-06-10T11:04:45Z</time>
      </trkpt>
      <trkpt lat="42.7056" lon="1.54985">
        <ele>1988.6245117188</ele>
        <time>2012-06-10T11:04:50Z</time>
      </trkpt>
      <trkpt lat="42.70565" lon="1.54987">
        <ele>1987.6630859375</ele>
        <time>2012-06-10T11:04:54Z</time>
      </trkpt>
      <trkpt lat="42.70571" lon="1.54988">
        <ele>1986.2211914062</ele>
        <time>2012-06-10T11:04:59Z</time>
      </trkpt>
      <trkpt lat="42.70579" lon="1.54995">
        <ele>1986.2211914062</ele>
        <time>2012-06-10T11:05:07Z</time>
      </trkpt>
      <trkpt lat="42.70583" lon="1.55">
        <ele>1984.779296875</ele>
        <time>2012-06-10T11:05:13Z</time>
      </trkpt>
      <trkpt lat="42.70587" lon="1.55003">
        <ele>1983.3371582031</ele>
        <time>2012-06-10T11:05:18Z</time>
      </trkpt>
      <trkpt lat="42.70591" lon="1.55005">
        <ele>1982.8564453125</ele>
        <time>2012-06-10T11:05:23Z</time>
      </trkpt>
      <trkpt lat="42.70592" lon="1.55006">
        <ele>1982.8564453125</ele>
        <time>2012-06-10T11:05:24Z</time>
      </trkpt>
      <trkpt lat="42.70598" lon="1.55008">
        <ele>1982.8564453125</ele>
        <time>2012-06-10T11:05:28Z</time>
      </trkpt>
      <trkpt lat="42.70603" lon="1.5501">
        <ele>1982.3759765625</ele>
        <time>2012-06-10T11:05:33Z</time>
      </trkpt>
      <trkpt lat="42.70607" lon="1.5501">
        <ele>1982.3759765625</ele>
        <time>2012-06-10T11:05:40Z</time>
      </trkpt>
      <trkpt lat="42.7061" lon="1.55012">
        <ele>1982.3759765625</ele>
        <time>2012-06-10T11:05:47Z</time>
      </trkpt>
      <trkpt lat="42.70613" lon="1.55013">
        <ele>1982.8564453125</ele>
        <time>2012-06-10T11:05:50Z</time>
      </trkpt>
      <trkpt lat="42.7062" lon="1.55019">
        <ele>1981.4145507812</ele>
        <time>2012-06-10T11:05:57Z</time>
      </trkpt>
      <trkpt lat="42.7062" lon="1.5502">
        <ele>1981.8952636719</ele>
        <time>2012-06-10T11:06:02Z</time>
      </trkpt>
      <trkpt lat="42.70623" lon="1.5502">
        <ele>1981.8952636719</ele>
        <time>2012-06-10T11:06:14Z</time>
      </trkpt>
      <trkpt lat="42.7063" lon="1.55024">
        <ele>1981.8952636719</ele>
        <time>2012-06-10T11:06:21Z</time>
      </trkpt>
      <trkpt lat="42.7064" lon="1.5503">
        <ele>1982.3759765625</ele>
        <time>2012-06-10T11:06:30Z</time>
      </trkpt>
      <trkpt lat="42.70646" lon="1.55031">
        <ele>1982.3759765625</ele>
        <time>2012-06-10T11:06:36Z</time>
      </trkpt>
      <trkpt lat="42.70653" lon="1.5503">
        <ele>1981.8952636719</ele>
        <time>2012-06-10T11:06:42Z</time>
      </trkpt>
      <trkpt lat="42.70663" lon="1.55031">
        <ele>1979.9724121094</ele>
        <time>2012-06-10T11:06:47Z</time>
      </trkpt>
      <trkpt lat="42.70671" lon="1.55035">
        <ele>1979.0109863281</ele>
        <time>2012-06-10T11:06:51Z</time>
      </trkpt>
      <trkpt lat="42.70679" lon="1.55036">
        <ele>1979.0109863281</ele>
        <time>2012-06-10T11:06:57Z</time>
      </trkpt>
      <trkpt lat="42.70688" lon="1.55032">
        <ele>1979.0109863281</ele>
        <time>2012-06-10T11:07:04Z</time>
      </trkpt>
      <trkpt lat="42.70692" lon="1.55027">
        <ele>1979.0109863281</ele>
        <time>2012-06-10T11:07:08Z</time>
      </trkpt>
      <trkpt lat="42.70697" lon="1.5502">
        <ele>1979.0109863281</ele>
        <time>2012-06-10T11:07:16Z</time>
      </trkpt>
      <trkpt lat="42.70699" lon="1.55014">
        <ele>1978.0498046875</ele>
        <time>2012-06-10T11:07:22Z</time>
      </trkpt>
      <trkpt lat="42.70701" lon="1.55009">
        <ele>1976.1271972656</ele>
        <time>2012-06-10T11:07:27Z</time>
      </trkpt>
      <trkpt lat="42.70705" lon="1.55008">
        <ele>1974.2045898438</ele>
        <time>2012-06-10T11:07:33Z</time>
      </trkpt>
      <trkpt lat="42.7071" lon="1.5501">
        <ele>1972.7626953125</ele>
        <time>2012-06-10T11:07:39Z</time>
      </trkpt>
      <trkpt lat="42.70715" lon="1.55012">
        <ele>1971.8012695312</ele>
        <time>2012-06-10T11:07:45Z</time>
      </trkpt>
      <trkpt lat="42.70717" lon="1.55012">
        <ele>1971.3205566406</ele>
        <time>2012-06-10T11:07:46Z</time>
      </trkpt>
      <trkpt lat="42.70726" lon="1.55011">
        <ele>1969.3981933594</ele>
        <time>2012-06-10T11:07:55Z</time>
      </trkpt>
      <trkpt lat="42.70726" lon="1.55011">
        <ele>1968.9174804688</ele>
        <time>2012-06-10T11:07:56Z</time>
      </trkpt>
      <trkpt lat="42.70732" lon="1.55007">
        <ele>1966.9948730469</ele>
        <time>2012-06-10T11:08:02Z</time>
      </trkpt>
      <trkpt lat="42.70732" lon="1.55007">
        <ele>1966.5141601562</ele>
        <time>2012-06-10T11:08:03Z</time>
      </trkpt>
      <trkpt lat="42.70737" lon="1.55006">
        <ele>1964.5915527344</ele>
        <time>2012-06-10T11:08:10Z</time>
      </trkpt>
      <trkpt lat="42.7074" lon="1.55006">
        <ele>1963.1494140625</ele>
        <time>2012-06-10T11:08:17Z</time>
      </trkpt>
      <trkpt lat="42.70742" lon="1.55005">
        <ele>1961.2268066406</ele>
        <time>2012-06-10T11:08:24Z</time>
      </trkpt>
      <trkpt lat="42.70745" lon="1.55007">
        <ele>1960.2653808594</ele>
        <time>2012-06-10T11:08:29Z</time>
      </trkpt>
      <trkpt lat="42.7075" lon="1.55007">
        <ele>1958.8234863281</ele>
        <time>2012-06-10T11:08:36Z</time>
      </trkpt>
      <trkpt lat="42.70752" lon="1.55005">
        <ele>1957.3815917969</ele>
        <time>2012-06-10T11:08:42Z</time>
      </trkpt>
      <trkpt lat="42.70754" lon="1.55003">
        <ele>1955.939453125</ele>
        <time>2012-06-10T11:08:58Z</time>
      </trkpt>
      <trkpt lat="42.70758" lon="1.55004">
        <ele>1954.0170898438</ele>
        <time>2012-06-10T11:09:04Z</time>
      </trkpt>
      <trkpt lat="42.7076" lon="1.55004">
        <ele>1952.5749511719</ele>
        <time>2012-06-10T11:09:11Z</time>
      </trkpt>
      <trkpt lat="42.70763" lon="1.55003">
        <ele>1951.1330566406</ele>
        <time>2012-06-10T11:09:15Z</time>
      </trkpt>
      <trkpt lat="42.70766" lon="1.55004">
        <ele>1950.171875</ele>
        <time>2012-06-10T11:09:21Z</time>
      </trkpt>
      <trkpt lat="42.70767" lon="1.55003">
        <ele>1949.2104492188</ele>
        <time>2012-06-10T11:09:27Z</time>
      </trkpt>
      <trkpt lat="42.70768" lon="1.55001">
        <ele>1948.7297363281</ele>
        <time>2012-06-10T11:09:31Z</time>
      </trkpt>
      <trkpt lat="42.7077" lon="1.55002">
        <ele>1947.7683105469</ele>
        <time>2012-06-10T11:09:36Z</time>
      </trkpt>
      <trkpt lat="42.70773" lon="1.55003">
        <ele>1946.3264160156</ele>
        <time>2012-06-10T11:09:42Z</time>
      </trkpt>
      <trkpt lat="42.70776" lon="1.55004">
        <ele>1944.4035644531</ele>
        <time>2012-06-10T11:09:48Z</time>
      </trkpt>
      <trkpt lat="42.70777" lon="1.55002">
        <ele>1943.4423828125</ele>
        <time>2012-06-10T11:09:52Z</time>
      </trkpt>
      <trkpt lat="42.70779" lon="1.54999">
        <ele>1941.5197753906</ele>
        <time>2012-06-10T11:09:58Z</time>
      </trkpt>
      <trkpt lat="42.70781" lon="1.55">
        <ele>1939.5971679688</ele>
        <time>2012-06-10T11:10:04Z</time>
      </trkpt>
      <trkpt lat="42.70782" lon="1.55">
        <ele>1938.6359863281</ele>
        <time>2012-06-10T11:10:10Z</time>
      </trkpt>
      <trkpt lat="42.70786" lon="1.54999">
        <ele>1936.7131347656</ele>
        <time>2012-06-10T11:10:16Z</time>
      </trkpt>
      <trkpt lat="42.70785" lon="1.55003">
        <ele>1935.2712402344</ele>
        <time>2012-06-10T11:10:20Z</time>
      </trkpt>
      <trkpt lat="42.70787" lon="1.55006">
        <ele>1933.3486328125</ele>
        <time>2012-06-10T11:10:26Z</time>
      </trkpt>
      <trkpt lat="42.70789" lon="1.55003">
        <ele>1932.3874511719</ele>
        <time>2012-06-10T11:10:30Z</time>
      </trkpt>
      <trkpt lat="42.70794" lon="1.55003">
        <ele>1930.9453125</ele>
        <time>2012-06-10T11:10:36Z</time>
      </trkpt>
      <trkpt lat="42.70799" lon="1.55002">
        <ele>1929.0224609375</ele>
        <time>2012-06-10T11:10:43Z</time>
      </trkpt>
      <trkpt lat="42.70805" lon="1.55">
        <ele>1926.138671875</ele>
        <time>2012-06-10T11:10:51Z</time>
      </trkpt>
      <trkpt lat="42.70807" lon="1.54997">
        <ele>1924.6967773438</ele>
        <time>2012-06-10T11:10:56Z</time>
      </trkpt>
      <trkpt lat="42.70811" lon="1.54996">
        <ele>1923.2548828125</ele>
        <time>2012-06-10T11:11:00Z</time>
      </trkpt>
      <trkpt lat="42.70814" lon="1.54996">
        <ele>1921.33203125</ele>
        <time>2012-06-10T11:11:06Z</time>
      </trkpt>
      <trkpt lat="42.70819" lon="1.54994">
        <ele>1919.4096679688</ele>
        <time>2012-06-10T11:11:13Z</time>
      </trkpt>
      <trkpt lat="42.70823" lon="1.54993">
        <ele>1917.9675292969</ele>
        <time>2012-06-10T11:11:18Z</time>
      </trkpt>
      <trkpt lat="42.70826" lon="1.54991">
        <ele>1915.5642089844</ele>
        <time>2012-06-10T11:11:24Z</time>
      </trkpt>
      <trkpt lat="42.70832" lon="1.54988">
        <ele>1913.6413574219</ele>
        <time>2012-06-10T11:11:30Z</time>
      </trkpt>
      <trkpt lat="42.70837" lon="1.54986">
        <ele>1912.1994628906</ele>
        <time>2012-06-10T11:11:35Z</time>
      </trkpt>
      <trkpt lat="42.70838" lon="1.54986">
        <ele>1912.1994628906</ele>
        <time>2012-06-10T11:11:36Z</time>
      </trkpt>
      <trkpt lat="42.7084" lon="1.54986">
        <ele>1911.23828125</ele>
        <time>2012-06-10T11:11:38Z</time>
      </trkpt>
      <trkpt lat="42.70847" lon="1.5498">
        <ele>1909.3156738281</ele>
        <time>2012-06-10T11:11:45Z</time>
      </trkpt>
      <trkpt lat="42.70852" lon="1.54972">
        <ele>1907.3930664062</ele>
        <time>2012-06-10T11:11:51Z</time>
      </trkpt>
      <trkpt lat="42.70853" lon="1.54971">
        <ele>1906.9123535156</ele>
        <time>2012-06-10T11:11:52Z</time>
      </trkpt>
      <trkpt lat="42.70853" lon="1.5497">
        <ele>1906.431640625</ele>
        <time>2012-06-10T11:11:54Z</time>
      </trkpt>
      <trkpt lat="42.70857" lon="1.54963">
        <ele>1905.4704589844</ele>
        <time>2012-06-10T11:11:59Z</time>
      </trkpt>
      <trkpt lat="42.70862" lon="1.54963">
        <ele>1903.5478515625</ele>
        <time>2012-06-10T11:12:07Z</time>
      </trkpt>
      <trkpt lat="42.70865" lon="1.54962">
        <ele>1902.5864257812</ele>
        <time>2012-06-10T11:12:12Z</time>
      </trkpt>
      <trkpt lat="42.70868" lon="1.54956">
        <ele>1901.14453125</ele>
        <time>2012-06-10T11:12:18Z</time>
      </trkpt>
      <trkpt lat="42.70869" lon="1.5495">
        <ele>1899.2216796875</ele>
        <time>2012-06-10T11:12:25Z</time>
      </trkpt>
      <trkpt lat="42.70869" lon="1.54945">
        <ele>1898.2602539062</ele>
        <time>2012-06-10T11:12:29Z</time>
      </trkpt>
      <trkpt lat="42.70866" lon="1.54937">
        <ele>1896.337890625</ele>
        <time>2012-06-10T11:12:36Z</time>
      </trkpt>
      <trkpt lat="42.70864" lon="1.54932">
        <ele>1894.8957519531</ele>
        <time>2012-06-10T11:12:42Z</time>
      </trkpt>
      <trkpt lat="42.70862" lon="1.54928">
        <ele>1893.9345703125</ele>
        <time>2012-06-10T11:12:47Z</time>
      </trkpt>
      <trkpt lat="42.70863" lon="1.54925">
        <ele>1892.4926757812</ele>
        <time>2012-06-10T11:12:51Z</time>
      </trkpt>
      <trkpt lat="42.70864" lon="1.54923">
        <ele>1891.0505371094</ele>
        <time>2012-06-10T11:12:55Z</time>
      </trkpt>
      <trkpt lat="42.70868" lon="1.54921">
        <ele>1889.1279296875</ele>
        <time>2012-06-10T11:13:01Z</time>
      </trkpt>
      <trkpt lat="42.70871" lon="1.54918">
        <ele>1887.2053222656</ele>
        <time>2012-06-10T11:13:06Z</time>
      </trkpt>
      <trkpt lat="42.70875" lon="1.54915">
        <ele>1885.2827148438</ele>
        <time>2012-06-10T11:13:12Z</time>
      </trkpt>
      <trkpt lat="42.70879" lon="1.54913">
        <ele>1883.3598632812</ele>
        <time>2012-06-10T11:13:18Z</time>
      </trkpt>
      <trkpt lat="42.70882" lon="1.54912">
        <ele>1882.3986816406</ele>
        <time>2012-06-10T11:13:23Z</time>
      </trkpt>
      <trkpt lat="42.70887" lon="1.54915">
        <ele>1880.9567871094</ele>
        <time>2012-06-10T11:13:28Z</time>
      </trkpt>
      <trkpt lat="42.70894" lon="1.54913">
        <ele>1879.0339355469</ele>
        <time>2012-06-10T11:13:35Z</time>
      </trkpt>
      <trkpt lat="42.709" lon="1.54911">
        <ele>1878.0727539062</ele>
        <time>2012-06-10T11:13:41Z</time>
      </trkpt>
      <trkpt lat="42.70903" lon="1.54912">
        <ele>1877.5920410156</ele>
        <time>2012-06-10T11:13:47Z</time>
      </trkpt>
      <trkpt lat="42.70906" lon="1.54915">
        <ele>1877.1115722656</ele>
        <time>2012-06-10T11:13:52Z</time>
      </trkpt>
      <trkpt lat="42.70908" lon="1.54916">
        <ele>1876.1501464844</ele>
        <time>2012-06-10T11:13:56Z</time>
      </trkpt>
      <trkpt lat="42.70909" lon="1.54911">
        <ele>1874.7082519531</ele>
        <time>2012-06-10T11:14:01Z</time>
      </trkpt>
      <trkpt lat="42.70912" lon="1.54905">
        <ele>1874.7082519531</ele>
        <time>2012-06-10T11:14:05Z</time>
      </trkpt>
      <trkpt lat="42.70918" lon="1.54901">
        <ele>1873.2663574219</ele>
        <time>2012-06-10T11:14:12Z</time>
      </trkpt>
      <trkpt lat="42.7092" lon="1.54899">
        <ele>1871.82421875</ele>
        <time>2012-06-10T11:14:19Z</time>
      </trkpt>
      <trkpt lat="42.70922" lon="1.54899">
        <ele>1870.8630371094</ele>
        <time>2012-06-10T11:14:25Z</time>
      </trkpt>
      <trkpt lat="42.70927" lon="1.54901">
        <ele>1869.9016113281</ele>
        <time>2012-06-10T11:14:31Z</time>
      </trkpt>
      <trkpt lat="42.70932" lon="1.54904">
        <ele>1868.4597167969</ele>
        <time>2012-06-10T11:14:37Z</time>
      </trkpt>
      <trkpt lat="42.70935" lon="1.54907">
        <ele>1867.017578125</ele>
        <time>2012-06-10T11:14:43Z</time>
      </trkpt>
      <trkpt lat="42.70938" lon="1.5491">
        <ele>1865.5756835938</ele>
        <time>2012-06-10T11:14:50Z</time>
      </trkpt>
      <trkpt lat="42.70941" lon="1.54912">
        <ele>1864.1335449219</ele>
        <time>2012-06-10T11:14:55Z</time>
      </trkpt>
      <trkpt lat="42.70943" lon="1.54914">
        <ele>1862.2109375</ele>
        <time>2012-06-10T11:15:00Z</time>
      </trkpt>
      <trkpt lat="42.70947" lon="1.54913">
        <ele>1860.2883300781</ele>
        <time>2012-06-10T11:15:05Z</time>
      </trkpt>
      <trkpt lat="42.7095" lon="1.54911">
        <ele>1859.3271484375</ele>
        <time>2012-06-10T11:15:09Z</time>
      </trkpt>
      <trkpt lat="42.70952" lon="1.54906">
        <ele>1857.8852539062</ele>
        <time>2012-06-10T11:15:15Z</time>
      </trkpt>
      <trkpt lat="42.70953" lon="1.54903">
        <ele>1857.4045410156</ele>
        <time>2012-06-10T11:15:19Z</time>
      </trkpt>
      <trkpt lat="42.70956" lon="1.54902">
        <ele>1856.4431152344</ele>
        <time>2012-06-10T11:15:25Z</time>
      </trkpt>
      <trkpt lat="42.70958" lon="1.549">
        <ele>1854.5205078125</ele>
        <time>2012-06-10T11:15:30Z</time>
      </trkpt>
      <trkpt lat="42.7096" lon="1.549">
        <ele>1852.5979003906</ele>
        <time>2012-06-10T11:15:37Z</time>
      </trkpt>
      <trkpt lat="42.70963" lon="1.54899">
        <ele>1851.1557617188</ele>
        <time>2012-06-10T11:15:41Z</time>
      </trkpt>
      <trkpt lat="42.70966" lon="1.54903">
        <ele>1849.7138671875</ele>
        <time>2012-06-10T11:15:48Z</time>
      </trkpt>
      <trkpt lat="42.70968" lon="1.54906">
        <ele>1848.2717285156</ele>
        <time>2012-06-10T11:15:54Z</time>
      </trkpt>
      <trkpt lat="42.7097" lon="1.54907">
        <ele>1847.310546875</ele>
        <time>2012-06-10T11:15:59Z</time>
      </trkpt>
      <trkpt lat="42.70971" lon="1.54906">
        <ele>1846.8298339844</ele>
        <time>2012-06-10T11:16:04Z</time>
      </trkpt>
      <trkpt lat="42.70975" lon="1.54905">
        <ele>1845.8686523438</ele>
        <time>2012-06-10T11:16:11Z</time>
      </trkpt>
      <trkpt lat="42.70975" lon="1.54901">
        <ele>1844.4265136719</ele>
        <time>2012-06-10T11:16:17Z</time>
      </trkpt>
      <trkpt lat="42.70975" lon="1.54895">
        <ele>1842.5041503906</ele>
        <time>2012-06-10T11:16:23Z</time>
      </trkpt>
      <trkpt lat="42.70975" lon="1.54892">
        <ele>1840.5812988281</ele>
        <time>2012-06-10T11:16:29Z</time>
      </trkpt>
      <trkpt lat="42.70974" lon="1.54889">
        <ele>1839.1394042969</ele>
        <time>2012-06-10T11:16:36Z</time>
      </trkpt>
      <trkpt lat="42.70972" lon="1.54888">
        <ele>1838.1782226562</ele>
        <time>2012-06-10T11:16:44Z</time>
      </trkpt>
      <trkpt lat="42.70972" lon="1.54885">
        <ele>1837.216796875</ele>
        <time>2012-06-10T11:16:49Z</time>
      </trkpt>
      <trkpt lat="42.70975" lon="1.54883">
        <ele>1835.2939453125</ele>
        <time>2012-06-10T11:16:55Z</time>
      </trkpt>
      <trkpt lat="42.70977" lon="1.54882">
        <ele>1833.8520507812</ele>
        <time>2012-06-10T11:17:00Z</time>
      </trkpt>
      <trkpt lat="42.70982" lon="1.54882">
        <ele>1832.890625</ele>
        <time>2012-06-10T11:17:04Z</time>
      </trkpt>
      <trkpt lat="42.70984" lon="1.54882">
        <ele>1830.9682617188</ele>
        <time>2012-06-10T11:17:10Z</time>
      </trkpt>
      <trkpt lat="42.70987" lon="1.5488">
        <ele>1830.4875488281</ele>
        <time>2012-06-10T11:17:14Z</time>
      </trkpt>
      <trkpt lat="42.70987" lon="1.54876">
        <ele>1830.4875488281</ele>
        <time>2012-06-10T11:17:33Z</time>
      </trkpt>
      <trkpt lat="42.70986" lon="1.54869">
        <ele>1829.5261230469</ele>
        <time>2012-06-10T11:17:38Z</time>
      </trkpt>
      <trkpt lat="42.70986" lon="1.5486">
        <ele>1827.123046875</ele>
        <time>2012-06-10T11:17:45Z</time>
      </trkpt>
      <trkpt lat="42.70988" lon="1.54856">
        <ele>1825.6809082031</ele>
        <time>2012-06-10T11:17:51Z</time>
      </trkpt>
      <trkpt lat="42.7099" lon="1.54852">
        <ele>1824.2390136719</ele>
        <time>2012-06-10T11:17:56Z</time>
      </trkpt>
      <trkpt lat="42.70989" lon="1.54849">
        <ele>1822.7971191406</ele>
        <time>2012-06-10T11:18:02Z</time>
      </trkpt>
      <trkpt lat="42.7099" lon="1.54844">
        <ele>1819.9128417969</ele>
        <time>2012-06-10T11:18:09Z</time>
      </trkpt>
      <trkpt lat="42.70988" lon="1.5484">
        <ele>1818.4709472656</ele>
        <time>2012-06-10T11:18:14Z</time>
      </trkpt>
      <trkpt lat="42.70987" lon="1.54835">
        <ele>1816.5483398438</ele>
        <time>2012-06-10T11:18:20Z</time>
      </trkpt>
      <trkpt lat="42.70986" lon="1.54832">
        <ele>1815.1064453125</ele>
        <time>2012-06-10T11:18:25Z</time>
      </trkpt>
      <trkpt lat="42.70985" lon="1.5483">
        <ele>1814.1450195312</ele>
        <time>2012-06-10T11:18:29Z</time>
      </trkpt>
      <trkpt lat="42.70984" lon="1.54828">
        <ele>1812.703125</ele>
        <time>2012-06-10T11:18:37Z</time>
      </trkpt>
      <trkpt lat="42.70982" lon="1.54823">
        <ele>1811.7419433594</ele>
        <time>2012-06-10T11:18:44Z</time>
      </trkpt>
      <trkpt lat="42.7098" lon="1.54817">
        <ele>1809.8190917969</ele>
        <time>2012-06-10T11:18:52Z</time>
      </trkpt>
      <trkpt lat="42.70979" lon="1.54815">
        <ele>1809.3386230469</ele>
        <time>2012-06-10T11:18:58Z</time>
      </trkpt>
      <trkpt lat="42.70979" lon="1.54812">
        <ele>1808.3771972656</ele>
        <time>2012-06-10T11:19:04Z</time>
      </trkpt>
      <trkpt lat="42.70977" lon="1.54809">
        <ele>1807.416015625</ele>
        <time>2012-06-10T11:19:09Z</time>
      </trkpt>
      <trkpt lat="42.70975" lon="1.54807">
        <ele>1806.9353027344</ele>
        <time>2012-06-10T11:19:13Z</time>
      </trkpt>
      <trkpt lat="42.70973" lon="1.54803">
        <ele>1805.9738769531</ele>
        <time>2012-06-10T11:19:20Z</time>
      </trkpt>
      <trkpt lat="42.70971" lon="1.54799">
        <ele>1805.4934082031</ele>
        <time>2012-06-10T11:19:26Z</time>
      </trkpt>
      <trkpt lat="42.70971" lon="1.54794">
        <ele>1802.6091308594</ele>
        <time>2012-06-10T11:19:33Z</time>
      </trkpt>
      <trkpt lat="42.7097" lon="1.54789">
        <ele>1801.1672363281</ele>
        <time>2012-06-10T11:19:38Z</time>
      </trkpt>
      <trkpt lat="42.70967" lon="1.54786">
        <ele>1800.2060546875</ele>
        <time>2012-06-10T11:19:42Z</time>
      </trkpt>
      <trkpt lat="42.70963" lon="1.54782">
        <ele>1798.283203125</ele>
        <time>2012-06-10T11:19:49Z</time>
      </trkpt>
      <trkpt lat="42.70961" lon="1.54779">
        <ele>1797.3220214844</ele>
        <time>2012-06-10T11:19:53Z</time>
      </trkpt>
      <trkpt lat="42.70958" lon="1.54776">
        <ele>1795.8801269531</ele>
        <time>2012-06-10T11:19:59Z</time>
      </trkpt>
      <trkpt lat="42.70955" lon="1.54773">
        <ele>1794.4379882812</ele>
        <time>2012-06-10T11:20:03Z</time>
      </trkpt>
      <trkpt lat="42.70951" lon="1.54769">
        <ele>1792.99609375</ele>
        <time>2012-06-10T11:20:08Z</time>
      </trkpt>
      <trkpt lat="42.70945" lon="1.54766">
        <ele>1791.0734863281</ele>
        <time>2012-06-10T11:20:16Z</time>
      </trkpt>
      <trkpt lat="42.70942" lon="1.54765">
        <ele>1789.1508789062</ele>
        <time>2012-06-10T11:20:21Z</time>
      </trkpt>
      <trkpt lat="42.7094" lon="1.54764">
        <ele>1787.7087402344</ele>
        <time>2012-06-10T11:20:26Z</time>
      </trkpt>
      <trkpt lat="42.70939" lon="1.54764">
        <ele>1787.2280273438</ele>
        <time>2012-06-10T11:20:31Z</time>
      </trkpt>
      <trkpt lat="42.70935" lon="1.54763">
        <ele>1785.3054199219</ele>
        <time>2012-06-10T11:20:38Z</time>
      </trkpt>
      <trkpt lat="42.70935" lon="1.54759">
        <ele>1782.9020996094</ele>
        <time>2012-06-10T11:20:44Z</time>
      </trkpt>
      <trkpt lat="42.70936" lon="1.54756">
        <ele>1780.4990234375</ele>
        <time>2012-06-10T11:20:49Z</time>
      </trkpt>
      <trkpt lat="42.70937" lon="1.54752">
        <ele>1778.5764160156</ele>
        <time>2012-06-10T11:20:55Z</time>
      </trkpt>
      <trkpt lat="42.70935" lon="1.54748">
        <ele>1776.6538085938</ele>
        <time>2012-06-10T11:21:01Z</time>
      </trkpt>
      <trkpt lat="42.70933" lon="1.54746">
        <ele>1775.6923828125</ele>
        <time>2012-06-10T11:21:06Z</time>
      </trkpt>
      <trkpt lat="42.7093" lon="1.54744">
        <ele>1775.2116699219</ele>
        <time>2012-06-10T11:21:11Z</time>
      </trkpt>
      <trkpt lat="42.7093" lon="1.54741">
        <ele>1773.7697753906</ele>
        <time>2012-06-10T11:21:15Z</time>
      </trkpt>
      <trkpt lat="42.70928" lon="1.54738">
        <ele>1773.7697753906</ele>
        <time>2012-06-10T11:21:21Z</time>
      </trkpt>
      <trkpt lat="42.70924" lon="1.54734">
        <ele>1772.80859375</ele>
        <time>2012-06-10T11:21:27Z</time>
      </trkpt>
      <trkpt lat="42.70921" lon="1.54732">
        <ele>1772.3278808594</ele>
        <time>2012-06-10T11:21:32Z</time>
      </trkpt>
      <trkpt lat="42.70918" lon="1.54729">
        <ele>1771.8469238281</ele>
        <time>2012-06-10T11:21:37Z</time>
      </trkpt>
      <trkpt lat="42.70916" lon="1.5473">
        <ele>1771.3662109375</ele>
        <time>2012-06-10T11:21:41Z</time>
      </trkpt>
      <trkpt lat="42.70914" lon="1.54729">
        <ele>1771.3662109375</ele>
        <time>2012-06-10T11:21:46Z</time>
      </trkpt>
      <trkpt lat="42.70914" lon="1.54724">
        <ele>1768.9631347656</ele>
        <time>2012-06-10T11:21:56Z</time>
      </trkpt>
      <trkpt lat="42.70911" lon="1.54722">
        <ele>1767.0405273438</ele>
        <time>2012-06-10T11:22:01Z</time>
      </trkpt>
      <trkpt lat="42.7091" lon="1.54716">
        <ele>1764.1564941406</ele>
        <time>2012-06-10T11:22:07Z</time>
      </trkpt>
      <trkpt lat="42.70908" lon="1.54713">
        <ele>1762.7145996094</ele>
        <time>2012-06-10T11:22:10Z</time>
      </trkpt>
      <trkpt lat="42.70904" lon="1.54708">
        <ele>1760.7919921875</ele>
        <time>2012-06-10T11:22:15Z</time>
      </trkpt>
      <trkpt lat="42.70903" lon="1.54707">
        <ele>1760.3112792969</ele>
        <time>2012-06-10T11:22:16Z</time>
      </trkpt>
      <trkpt lat="42.70901" lon="1.54703">
        <ele>1759.8305664062</ele>
        <time>2012-06-10T11:22:19Z</time>
      </trkpt>
      <trkpt lat="42.709" lon="1.54691">
        <ele>1758.388671875</ele>
        <time>2012-06-10T11:22:27Z</time>
      </trkpt>
      <trkpt lat="42.70896" lon="1.54683">
        <ele>1757.908203125</ele>
        <time>2012-06-10T11:22:33Z</time>
      </trkpt>
      <trkpt lat="42.70893" lon="1.54674">
        <ele>1758.8693847656</ele>
        <time>2012-06-10T11:22:39Z</time>
      </trkpt>
      <trkpt lat="42.70892" lon="1.54671">
        <ele>1759.3500976562</ele>
        <time>2012-06-10T11:22:42Z</time>
      </trkpt>
      <trkpt lat="42.70893" lon="1.54668">
        <ele>1759.8305664062</ele>
        <time>2012-06-10T11:22:44Z</time>
      </trkpt>
      <trkpt lat="42.70892" lon="1.54656">
        <ele>1761.2727050781</ele>
        <time>2012-06-10T11:22:52Z</time>
      </trkpt>
      <trkpt lat="42.70893" lon="1.54648">
        <ele>1759.8305664062</ele>
        <time>2012-06-10T11:22:58Z</time>
      </trkpt>
      <trkpt lat="42.70894" lon="1.54642">
        <ele>1758.8693847656</ele>
        <time>2012-06-10T11:23:05Z</time>
      </trkpt>
      <trkpt lat="42.70893" lon="1.54636">
        <ele>1758.388671875</ele>
        <time>2012-06-10T11:23:10Z</time>
      </trkpt>
      <trkpt lat="42.70889" lon="1.5463">
        <ele>1757.4274902344</ele>
        <time>2012-06-10T11:23:17Z</time>
      </trkpt>
      <trkpt lat="42.70889" lon="1.54628">
        <ele>1756.4660644531</ele>
        <time>2012-06-10T11:23:24Z</time>
      </trkpt>
      <trkpt lat="42.70891" lon="1.54627">
        <ele>1755.0239257812</ele>
        <time>2012-06-10T11:23:31Z</time>
      </trkpt>
      <trkpt lat="42.7089" lon="1.54625">
        <ele>1754.5432128906</ele>
        <time>2012-06-10T11:23:38Z</time>
      </trkpt>
      <trkpt lat="42.70889" lon="1.54623">
        <ele>1754.0627441406</ele>
        <time>2012-06-10T11:23:43Z</time>
      </trkpt>
      <trkpt lat="42.70892" lon="1.54619">
        <ele>1753.58203125</ele>
        <time>2012-06-10T11:23:55Z</time>
      </trkpt>
      <trkpt lat="42.70896" lon="1.54619">
        <ele>1754.0627441406</ele>
        <time>2012-06-10T11:24:03Z</time>
      </trkpt>
      <trkpt lat="42.70897" lon="1.54622">
        <ele>1753.58203125</ele>
        <time>2012-06-10T11:24:09Z</time>
      </trkpt>
      <trkpt lat="42.70901" lon="1.54621">
        <ele>1751.1787109375</ele>
        <time>2012-06-10T11:24:16Z</time>
      </trkpt>
      <trkpt lat="42.70902" lon="1.54619">
        <ele>1749.7368164062</ele>
        <time>2012-06-10T11:24:20Z</time>
      </trkpt>
      <trkpt lat="42.70903" lon="1.54619">
        <ele>1748.775390625</ele>
        <time>2012-06-10T11:24:25Z</time>
      </trkpt>
      <trkpt lat="42.70904" lon="1.54619">
        <ele>1747.8142089844</ele>
        <time>2012-06-10T11:24:31Z</time>
      </trkpt>
      <trkpt lat="42.70906" lon="1.54616">
        <ele>1747.8142089844</ele>
        <time>2012-06-10T11:24:33Z</time>
      </trkpt>
      <trkpt lat="42.70907" lon="1.5461">
        <ele>1747.3334960938</ele>
        <time>2012-06-10T11:24:39Z</time>
      </trkpt>
      <trkpt lat="42.70911" lon="1.54608">
        <ele>1746.8527832031</ele>
        <time>2012-06-10T11:24:45Z</time>
      </trkpt>
      <trkpt lat="42.70913" lon="1.54605">
        <ele>1745.4108886719</ele>
        <time>2012-06-10T11:24:50Z</time>
      </trkpt>
      <trkpt lat="42.70916" lon="1.54602">
        <ele>1744.4494628906</ele>
        <time>2012-06-10T11:24:58Z</time>
      </trkpt>
      <trkpt lat="42.7092" lon="1.54604">
        <ele>1743.48828125</ele>
        <time>2012-06-10T11:25:03Z</time>
      </trkpt>
      <trkpt lat="42.70925" lon="1.54609">
        <ele>1744.4494628906</ele>
        <time>2012-06-10T11:25:09Z</time>
      </trkpt>
      <trkpt lat="42.70926" lon="1.5461">
        <ele>1745.4108886719</ele>
        <time>2012-06-10T11:25:15Z</time>
      </trkpt>
      <trkpt lat="42.70927" lon="1.54611">
        <ele>1743.48828125</ele>
        <time>2012-06-10T11:25:23Z</time>
      </trkpt>
      <trkpt lat="42.70926" lon="1.54611">
        <ele>1743.48828125</ele>
        <time>2012-06-10T11:25:26Z</time>
      </trkpt>
      <trkpt lat="42.70929" lon="1.54614">
        <ele>1743.48828125</ele>
        <time>2012-06-10T11:25:38Z</time>
      </trkpt>
      <trkpt lat="42.70934" lon="1.5462">
        <ele>1743.48828125</ele>
        <time>2012-06-10T11:25:44Z</time>
      </trkpt>
      <trkpt lat="42.70938" lon="1.54623">
        <ele>1743.0075683594</ele>
        <time>2012-06-10T11:25:49Z</time>
      </trkpt>
      <trkpt lat="42.7094" lon="1.54628">
        <ele>1742.0463867188</ele>
        <time>2012-06-10T11:25:56Z</time>
      </trkpt>
      <trkpt lat="42.70943" lon="1.54634">
        <ele>1740.6042480469</ele>
        <time>2012-06-10T11:26:03Z</time>
      </trkpt>
      <trkpt lat="42.70947" lon="1.54638">
        <ele>1739.6428222656</ele>
        <time>2012-06-10T11:26:10Z</time>
      </trkpt>
      <trkpt lat="42.70951" lon="1.54643">
        <ele>1739.162109375</ele>
        <time>2012-06-10T11:26:16Z</time>
      </trkpt>
      <trkpt lat="42.70953" lon="1.54645">
        <ele>1738.681640625</ele>
        <time>2012-06-10T11:26:18Z</time>
      </trkpt>
      <trkpt lat="42.70956" lon="1.54648">
        <ele>1739.162109375</ele>
        <time>2012-06-10T11:26:22Z</time>
      </trkpt>
      <trkpt lat="42.70959" lon="1.54652">
        <ele>1738.2009277344</ele>
        <time>2012-06-10T11:26:26Z</time>
      </trkpt>
      <trkpt lat="42.70966" lon="1.54657">
        <ele>1737.7202148438</ele>
        <time>2012-06-10T11:26:33Z</time>
      </trkpt>
      <trkpt lat="42.70971" lon="1.5466">
        <ele>1737.7202148438</ele>
        <time>2012-06-10T11:26:39Z</time>
      </trkpt>
      <trkpt lat="42.70977" lon="1.54666">
        <ele>1738.2009277344</ele>
        <time>2012-06-10T11:26:48Z</time>
      </trkpt>
      <trkpt lat="42.70982" lon="1.54671">
        <ele>1738.2009277344</ele>
        <time>2012-06-10T11:26:54Z</time>
      </trkpt>
      <trkpt lat="42.70986" lon="1.54673">
        <ele>1738.681640625</ele>
        <time>2012-06-10T11:27:00Z</time>
      </trkpt>
      <trkpt lat="42.7099" lon="1.54678">
        <ele>1740.1237792969</ele>
        <time>2012-06-10T11:27:06Z</time>
      </trkpt>
      <trkpt lat="42.70994" lon="1.54684">
        <ele>1741.5656738281</ele>
        <time>2012-06-10T11:27:12Z</time>
      </trkpt>
      <trkpt lat="42.70996" lon="1.54686">
        <ele>1743.0075683594</ele>
        <time>2012-06-10T11:27:14Z</time>
      </trkpt>
      <trkpt lat="42.71001" lon="1.54688">
        <ele>1740.6042480469</ele>
        <time>2012-06-10T11:27:19Z</time>
      </trkpt>
      <trkpt lat="42.71003" lon="1.54694">
        <ele>1743.48828125</ele>
        <time>2012-06-10T11:27:25Z</time>
      </trkpt>
      <trkpt lat="42.71006" lon="1.54697">
        <ele>1748.2946777344</ele>
        <time>2012-06-10T11:27:27Z</time>
      </trkpt>
      <trkpt lat="42.71011" lon="1.54701">
        <ele>1749.2561035156</ele>
        <time>2012-06-10T11:27:33Z</time>
      </trkpt>
      <trkpt lat="42.71015" lon="1.54704">
        <ele>1744.9301757812</ele>
        <time>2012-06-10T11:27:39Z</time>
      </trkpt>
      <trkpt lat="42.71018" lon="1.54705">
        <ele>1743.9689941406</ele>
        <time>2012-06-10T11:27:45Z</time>
      </trkpt>
      <trkpt lat="42.71021" lon="1.54707">
        <ele>1745.8916015625</ele>
        <time>2012-06-10T11:27:49Z</time>
      </trkpt>
      <trkpt lat="42.71024" lon="1.54709">
        <ele>1748.2946777344</ele>
        <time>2012-06-10T11:27:55Z</time>
      </trkpt>
      <trkpt lat="42.71028" lon="1.54713">
        <ele>1748.2946777344</ele>
        <time>2012-06-10T11:28:01Z</time>
      </trkpt>
      <trkpt lat="42.71032" lon="1.54713">
        <ele>1746.3723144531</ele>
        <time>2012-06-10T11:28:07Z</time>
      </trkpt>
      <trkpt lat="42.71037" lon="1.54716">
        <ele>1743.9689941406</ele>
        <time>2012-06-10T11:28:12Z</time>
      </trkpt>
      <trkpt lat="42.71042" lon="1.54717">
        <ele>1742.5270996094</ele>
        <time>2012-06-10T11:28:17Z</time>
      </trkpt>
      <trkpt lat="42.71046" lon="1.54722">
        <ele>1741.0849609375</ele>
        <time>2012-06-10T11:28:23Z</time>
      </trkpt>
      <trkpt lat="42.71048" lon="1.54728">
        <ele>1740.1237792969</ele>
        <time>2012-06-10T11:28:29Z</time>
      </trkpt>
      <trkpt lat="42.71049" lon="1.54729">
        <ele>1740.1237792969</ele>
        <time>2012-06-10T11:28:35Z</time>
      </trkpt>
      <trkpt lat="42.71052" lon="1.54731">
        <ele>1742.0463867188</ele>
        <time>2012-06-10T11:28:44Z</time>
      </trkpt>
      <trkpt lat="42.71056" lon="1.54732">
        <ele>1742.0463867188</ele>
        <time>2012-06-10T11:28:48Z</time>
      </trkpt>
      <trkpt lat="42.71059" lon="1.5473">
        <ele>1742.0463867188</ele>
        <time>2012-06-10T11:28:54Z</time>
      </trkpt>
      <trkpt lat="42.71062" lon="1.54731">
        <ele>1742.0463867188</ele>
        <time>2012-06-10T11:29:00Z</time>
      </trkpt>
      <trkpt lat="42.71065" lon="1.54732">
        <ele>1741.5656738281</ele>
        <time>2012-06-10T11:29:04Z</time>
      </trkpt>
      <trkpt lat="42.7107" lon="1.54734">
        <ele>1743.0075683594</ele>
        <time>2012-06-10T11:29:10Z</time>
      </trkpt>
      <trkpt lat="42.71072" lon="1.54735">
        <ele>1743.48828125</ele>
        <time>2012-06-10T11:29:14Z</time>
      </trkpt>
      <trkpt lat="42.71077" lon="1.5474">
        <ele>1743.48828125</ele>
        <time>2012-06-10T11:29:21Z</time>
      </trkpt>
      <trkpt lat="42.7108" lon="1.54744">
        <ele>1742.5270996094</ele>
        <time>2012-06-10T11:29:26Z</time>
      </trkpt>
      <trkpt lat="42.71085" lon="1.54749">
        <ele>1740.6042480469</ele>
        <time>2012-06-10T11:29:32Z</time>
      </trkpt>
      <trkpt lat="42.71088" lon="1.54753">
        <ele>1738.2009277344</ele>
        <time>2012-06-10T11:29:37Z</time>
      </trkpt>
      <trkpt lat="42.71092" lon="1.54754">
        <ele>1736.7587890625</ele>
        <time>2012-06-10T11:29:42Z</time>
      </trkpt>
      <trkpt lat="42.71094" lon="1.54758">
        <ele>1735.7976074219</ele>
        <time>2012-06-10T11:29:47Z</time>
      </trkpt>
      <trkpt lat="42.71095" lon="1.54762">
        <ele>1733.875</ele>
        <time>2012-06-10T11:29:52Z</time>
      </trkpt>
      <trkpt lat="42.71098" lon="1.54765">
        <ele>1732.9135742188</ele>
        <time>2012-06-10T11:29:57Z</time>
      </trkpt>
      <trkpt lat="42.711" lon="1.54769">
        <ele>1731.9523925781</ele>
        <time>2012-06-10T11:30:04Z</time>
      </trkpt>
      <trkpt lat="42.71102" lon="1.54773">
        <ele>1730.9912109375</ele>
        <time>2012-06-10T11:30:10Z</time>
      </trkpt>
      <trkpt lat="42.71103" lon="1.54778">
        <ele>1729.068359375</ele>
        <time>2012-06-10T11:30:17Z</time>
      </trkpt>
      <trkpt lat="42.71098" lon="1.54781">
        <ele>1728.1071777344</ele>
        <time>2012-06-10T11:30:24Z</time>
      </trkpt>
      <trkpt lat="42.71096" lon="1.54783">
        <ele>1727.6264648438</ele>
        <time>2012-06-10T11:30:29Z</time>
      </trkpt>
      <trkpt lat="42.71099" lon="1.54786">
        <ele>1726.1845703125</ele>
        <time>2012-06-10T11:30:34Z</time>
      </trkpt>
      <trkpt lat="42.71099" lon="1.5479">
        <ele>1724.7426757812</ele>
        <time>2012-06-10T11:30:39Z</time>
      </trkpt>
      <trkpt lat="42.71095" lon="1.54792">
        <ele>1723.3005371094</ele>
        <time>2012-06-10T11:30:45Z</time>
      </trkpt>
      <trkpt lat="42.71094" lon="1.54796">
        <ele>1721.8583984375</ele>
        <time>2012-06-10T11:30:50Z</time>
      </trkpt>
      <trkpt lat="42.71096" lon="1.54798">
        <ele>1720.4165039062</ele>
        <time>2012-06-10T11:30:55Z</time>
      </trkpt>
      <trkpt lat="42.71096" lon="1.54801">
        <ele>1718.4938964844</ele>
        <time>2012-06-10T11:30:59Z</time>
      </trkpt>
      <trkpt lat="42.71099" lon="1.54803">
        <ele>1717.5324707031</ele>
        <time>2012-06-10T11:31:03Z</time>
      </trkpt>
      <trkpt lat="42.71103" lon="1.54807">
        <ele>1716.0905761719</ele>
        <time>2012-06-10T11:31:09Z</time>
      </trkpt>
      <trkpt lat="42.71109" lon="1.54814">
        <ele>1714.16796875</ele>
        <time>2012-06-10T11:31:16Z</time>
      </trkpt>
      <trkpt lat="42.71113" lon="1.5482">
        <ele>1713.2067871094</ele>
        <time>2012-06-10T11:31:22Z</time>
      </trkpt>
      <trkpt lat="42.71114" lon="1.54822">
        <ele>1712.2453613281</ele>
        <time>2012-06-10T11:31:24Z</time>
      </trkpt>
      <trkpt lat="42.71117" lon="1.5483">
        <ele>1710.3227539062</ele>
        <time>2012-06-10T11:31:31Z</time>
      </trkpt>
      <trkpt lat="42.71116" lon="1.54833">
        <ele>1706.9580078125</ele>
        <time>2012-06-10T11:31:37Z</time>
      </trkpt>
      <trkpt lat="42.71116" lon="1.54838">
        <ele>1704.07421875</ele>
        <time>2012-06-10T11:31:42Z</time>
      </trkpt>
      <trkpt lat="42.7112" lon="1.54842">
        <ele>1703.1127929688</ele>
        <time>2012-06-10T11:31:47Z</time>
      </trkpt>
      <trkpt lat="42.71124" lon="1.54847">
        <ele>1703.1127929688</ele>
        <time>2012-06-10T11:31:53Z</time>
      </trkpt>
      <trkpt lat="42.71126" lon="1.5485">
        <ele>1702.1513671875</ele>
        <time>2012-06-10T11:31:57Z</time>
      </trkpt>
      <trkpt lat="42.71127" lon="1.54855">
        <ele>1701.1901855469</ele>
        <time>2012-06-10T11:32:01Z</time>
      </trkpt>
      <trkpt lat="42.7113" lon="1.5486">
        <ele>1699.7482910156</ele>
        <time>2012-06-10T11:32:07Z</time>
      </trkpt>
      <trkpt lat="42.71133" lon="1.54865">
        <ele>1699.267578125</ele>
        <time>2012-06-10T11:32:12Z</time>
      </trkpt>
      <trkpt lat="42.71137" lon="1.54871">
        <ele>1699.7482910156</ele>
        <time>2012-06-10T11:32:18Z</time>
      </trkpt>
      <trkpt lat="42.71139" lon="1.54877">
        <ele>1699.267578125</ele>
        <time>2012-06-10T11:32:25Z</time>
      </trkpt>
      <trkpt lat="42.71141" lon="1.54882">
        <ele>1696.8642578125</ele>
        <time>2012-06-10T11:32:32Z</time>
      </trkpt>
      <trkpt lat="42.71143" lon="1.54884">
        <ele>1695.9030761719</ele>
        <time>2012-06-10T11:32:36Z</time>
      </trkpt>
      <trkpt lat="42.71146" lon="1.54889">
        <ele>1693.98046875</ele>
        <time>2012-06-10T11:32:43Z</time>
      </trkpt>
      <trkpt lat="42.71148" lon="1.54889">
        <ele>1693.0190429688</ele>
        <time>2012-06-10T11:32:47Z</time>
      </trkpt>
      <trkpt lat="42.71149" lon="1.54893">
        <ele>1691.5769042969</ele>
        <time>2012-06-10T11:32:52Z</time>
      </trkpt>
      <trkpt lat="42.71152" lon="1.54896">
        <ele>1693.0190429688</ele>
        <time>2012-06-10T11:32:57Z</time>
      </trkpt>
      <trkpt lat="42.71153" lon="1.54899">
        <ele>1693.4997558594</ele>
        <time>2012-06-10T11:33:03Z</time>
      </trkpt>
      <trkpt lat="42.71154" lon="1.549">
        <ele>1694.9416503906</ele>
        <time>2012-06-10T11:33:04Z</time>
      </trkpt>
      <trkpt lat="42.71159" lon="1.54904">
        <ele>1697.8256835938</ele>
        <time>2012-06-10T11:33:10Z</time>
      </trkpt>
      <trkpt lat="42.7116" lon="1.54909">
        <ele>1698.3061523438</ele>
        <time>2012-06-10T11:33:15Z</time>
      </trkpt>
      <trkpt lat="42.71165" lon="1.54916">
        <ele>1698.7868652344</ele>
        <time>2012-06-10T11:33:22Z</time>
      </trkpt>
      <trkpt lat="42.71166" lon="1.54919">
        <ele>1699.267578125</ele>
        <time>2012-06-10T11:33:24Z</time>
      </trkpt>
      <trkpt lat="42.71167" lon="1.54922">
        <ele>1700.7094726562</ele>
        <time>2012-06-10T11:33:26Z</time>
      </trkpt>
      <trkpt lat="42.71167" lon="1.54927">
        <ele>1693.4997558594</ele>
        <time>2012-06-10T11:33:33Z</time>
      </trkpt>
      <trkpt lat="42.71165" lon="1.54932">
        <ele>1688.2124023438</ele>
        <time>2012-06-10T11:33:39Z</time>
      </trkpt>
      <trkpt lat="42.71168" lon="1.54933">
        <ele>1685.3283691406</ele>
        <time>2012-06-10T11:33:45Z</time>
      </trkpt>
      <trkpt lat="42.71171" lon="1.54937">
        <ele>1682.9250488281</ele>
        <time>2012-06-10T11:33:51Z</time>
      </trkpt>
      <trkpt lat="42.71173" lon="1.54942">
        <ele>1680.0412597656</ele>
        <time>2012-06-10T11:33:57Z</time>
      </trkpt>
      <trkpt lat="42.71175" lon="1.54946">
        <ele>1678.5993652344</ele>
        <time>2012-06-10T11:34:02Z</time>
      </trkpt>
      <trkpt lat="42.71178" lon="1.5495">
        <ele>1676.1960449219</ele>
        <time>2012-06-10T11:34:09Z</time>
      </trkpt>
      <trkpt lat="42.71181" lon="1.54954">
        <ele>1674.2731933594</ele>
        <time>2012-06-10T11:34:15Z</time>
      </trkpt>
      <trkpt lat="42.71185" lon="1.5496">
        <ele>1671.8698730469</ele>
        <time>2012-06-10T11:34:23Z</time>
      </trkpt>
      <trkpt lat="42.71191" lon="1.54966">
        <ele>1669.947265625</ele>
        <time>2012-06-10T11:34:31Z</time>
      </trkpt>
      <trkpt lat="42.71194" lon="1.5497">
        <ele>1668.9860839844</ele>
        <time>2012-06-10T11:34:35Z</time>
      </trkpt>
      <trkpt lat="42.71198" lon="1.54977">
        <ele>1666.5827636719</ele>
        <time>2012-06-10T11:34:43Z</time>
      </trkpt>
      <trkpt lat="42.712" lon="1.5498">
        <ele>1665.6215820312</ele>
        <time>2012-06-10T11:34:48Z</time>
      </trkpt>
      <trkpt lat="42.71202" lon="1.54983">
        <ele>1664.1794433594</ele>
        <time>2012-06-10T11:34:52Z</time>
      </trkpt>
      <trkpt lat="42.71206" lon="1.54989">
        <ele>1662.2568359375</ele>
        <time>2012-06-10T11:34:59Z</time>
      </trkpt>
      <trkpt lat="42.7121" lon="1.54997">
        <ele>1661.2956542969</ele>
        <time>2012-06-10T11:35:04Z</time>
      </trkpt>
      <trkpt lat="42.71211" lon="1.55">
        <ele>1660.8149414062</ele>
        <time>2012-06-10T11:35:06Z</time>
      </trkpt>
      <trkpt lat="42.71218" lon="1.55009">
        <ele>1659.8532714844</ele>
        <time>2012-06-10T11:35:14Z</time>
      </trkpt>
      <trkpt lat="42.71223" lon="1.55017">
        <ele>1659.3728027344</ele>
        <time>2012-06-10T11:35:21Z</time>
      </trkpt>
      <trkpt lat="42.71226" lon="1.5502">
        <ele>1656.9694824219</ele>
        <time>2012-06-10T11:35:26Z</time>
      </trkpt>
      <trkpt lat="42.71227" lon="1.55024">
        <ele>1655.046875</ele>
        <time>2012-06-10T11:35:31Z</time>
      </trkpt>
      <trkpt lat="42.71225" lon="1.55027">
        <ele>1653.1242675781</ele>
        <time>2012-06-10T11:35:36Z</time>
      </trkpt>
      <trkpt lat="42.71221" lon="1.55025">
        <ele>1651.6823730469</ele>
        <time>2012-06-10T11:35:42Z</time>
      </trkpt>
      <trkpt lat="42.71221" lon="1.55029">
        <ele>1650.7209472656</ele>
        <time>2012-06-10T11:35:47Z</time>
      </trkpt>
      <trkpt lat="42.71224" lon="1.55032">
        <ele>1649.2790527344</ele>
        <time>2012-06-10T11:35:52Z</time>
      </trkpt>
      <trkpt lat="42.71225" lon="1.55035">
        <ele>1648.3176269531</ele>
        <time>2012-06-10T11:35:56Z</time>
      </trkpt>
      <trkpt lat="42.71227" lon="1.5504">
        <ele>1647.3564453125</ele>
        <time>2012-06-10T11:36:02Z</time>
      </trkpt>
      <trkpt lat="42.71221" lon="1.55041">
        <ele>1645.9145507812</ele>
        <time>2012-06-10T11:36:08Z</time>
      </trkpt>
      <trkpt lat="42.71216" lon="1.55041">
        <ele>1644.953125</ele>
        <time>2012-06-10T11:36:15Z</time>
      </trkpt>
      <trkpt lat="42.71221" lon="1.55047">
        <ele>1643.9916992188</ele>
        <time>2012-06-10T11:36:22Z</time>
      </trkpt>
      <trkpt lat="42.71226" lon="1.55054">
        <ele>1642.0690917969</ele>
        <time>2012-06-10T11:36:29Z</time>
      </trkpt>
      <trkpt lat="42.71227" lon="1.55062">
        <ele>1639.1850585938</ele>
        <time>2012-06-10T11:36:35Z</time>
      </trkpt>
      <trkpt lat="42.71228" lon="1.5507">
        <ele>1637.2624511719</ele>
        <time>2012-06-10T11:36:41Z</time>
      </trkpt>
      <trkpt lat="42.71228" lon="1.55075">
        <ele>1636.3012695312</ele>
        <time>2012-06-10T11:36:44Z</time>
      </trkpt>
      <trkpt lat="42.71229" lon="1.55081">
        <ele>1634.3786621094</ele>
        <time>2012-06-10T11:36:48Z</time>
      </trkpt>
      <trkpt lat="42.71231" lon="1.55092">
        <ele>1631.4946289062</ele>
        <time>2012-06-10T11:36:56Z</time>
      </trkpt>
      <trkpt lat="42.71228" lon="1.55098">
        <ele>1631.4946289062</ele>
        <time>2012-06-10T11:37:01Z</time>
      </trkpt>
      <trkpt lat="42.71225" lon="1.551">
        <ele>1630.052734375</ele>
        <time>2012-06-10T11:37:05Z</time>
      </trkpt>
      <trkpt lat="42.71223" lon="1.5511">
        <ele>1629.5720214844</ele>
        <time>2012-06-10T11:37:13Z</time>
      </trkpt>
      <trkpt lat="42.71222" lon="1.55119">
        <ele>1631.4946289062</ele>
        <time>2012-06-10T11:37:19Z</time>
      </trkpt>
      <trkpt lat="42.71223" lon="1.55128">
        <ele>1633.8979492188</ele>
        <time>2012-06-10T11:37:27Z</time>
      </trkpt>
      <trkpt lat="42.71223" lon="1.55137">
        <ele>1634.859375</ele>
        <time>2012-06-10T11:37:35Z</time>
      </trkpt>
      <trkpt lat="42.71222" lon="1.55145">
        <ele>1633.4172363281</ele>
        <time>2012-06-10T11:37:43Z</time>
      </trkpt>
      <trkpt lat="42.71222" lon="1.55149">
        <ele>1633.4172363281</ele>
        <time>2012-06-10T11:37:47Z</time>
      </trkpt>
      <trkpt lat="42.71224" lon="1.55155">
        <ele>1632.9365234375</ele>
        <time>2012-06-10T11:37:53Z</time>
      </trkpt>
      <trkpt lat="42.71227" lon="1.55157">
        <ele>1635.33984375</ele>
        <time>2012-06-10T11:37:59Z</time>
      </trkpt>
      <trkpt lat="42.71215" lon="1.55148">
        <ele>1648.3176269531</ele>
        <time>2012-06-10T11:39:05Z</time>
      </trkpt>
      <trkpt lat="42.71215" lon="1.5515">
        <ele>1643.5109863281</ele>
        <time>2012-06-10T11:39:12Z</time>
      </trkpt>
      <trkpt lat="42.71218" lon="1.55158">
        <ele>1640.146484375</ele>
        <time>2012-06-10T11:39:32Z</time>
      </trkpt>
      <trkpt lat="42.71219" lon="1.55164">
        <ele>1639.6657714844</ele>
        <time>2012-06-10T11:39:38Z</time>
      </trkpt>
      <trkpt lat="42.71217" lon="1.55171">
        <ele>1637.7431640625</ele>
        <time>2012-06-10T11:39:45Z</time>
      </trkpt>
      <trkpt lat="42.71215" lon="1.55176">
        <ele>1635.8205566406</ele>
        <time>2012-06-10T11:39:50Z</time>
      </trkpt>
      <trkpt lat="42.71215" lon="1.55182">
        <ele>1633.4172363281</ele>
        <time>2012-06-10T11:39:56Z</time>
      </trkpt>
      <trkpt lat="42.71216" lon="1.55189">
        <ele>1629.5720214844</ele>
        <time>2012-06-10T11:40:01Z</time>
      </trkpt>
      <trkpt lat="42.71216" lon="1.55191">
        <ele>1629.0913085938</ele>
        <time>2012-06-10T11:40:02Z</time>
      </trkpt>
      <trkpt lat="42.71218" lon="1.55202">
        <ele>1626.2072753906</ele>
        <time>2012-06-10T11:40:09Z</time>
      </trkpt>
      <trkpt lat="42.71216" lon="1.55209">
        <ele>1622.8427734375</ele>
        <time>2012-06-10T11:40:17Z</time>
      </trkpt>
      <trkpt lat="42.71217" lon="1.55215">
        <ele>1620.439453125</ele>
        <time>2012-06-10T11:40:23Z</time>
      </trkpt>
      <trkpt lat="42.71217" lon="1.55219">
        <ele>1618.9975585938</ele>
        <time>2012-06-10T11:40:29Z</time>
      </trkpt>
      <trkpt lat="42.71217" lon="1.55225">
        <ele>1618.9975585938</ele>
        <time>2012-06-10T11:40:34Z</time>
      </trkpt>
      <trkpt lat="42.71217" lon="1.55232">
        <ele>1617.5554199219</ele>
        <time>2012-06-10T11:40:39Z</time>
      </trkpt>
      <trkpt lat="42.71215" lon="1.5524">
        <ele>1615.15234375</ele>
        <time>2012-06-10T11:40:45Z</time>
      </trkpt>
      <trkpt lat="42.71215" lon="1.55242">
        <ele>1614.6716308594</ele>
        <time>2012-06-10T11:40:46Z</time>
      </trkpt>
      <trkpt lat="42.71211" lon="1.55254">
        <ele>1612.2683105469</ele>
        <time>2012-06-10T11:40:54Z</time>
      </trkpt>
      <trkpt lat="42.71206" lon="1.5527">
        <ele>1611.3068847656</ele>
        <time>2012-06-10T11:41:01Z</time>
      </trkpt>
      <trkpt lat="42.71202" lon="1.55287">
        <ele>1609.8647460938</ele>
        <time>2012-06-10T11:41:07Z</time>
      </trkpt>
      <trkpt lat="42.71198" lon="1.55297">
        <ele>1609.3842773438</ele>
        <time>2012-06-10T11:41:13Z</time>
      </trkpt>
      <trkpt lat="42.71195" lon="1.55306">
        <ele>1609.8647460938</ele>
        <time>2012-06-10T11:41:20Z</time>
      </trkpt>
      <trkpt lat="42.71193" lon="1.55316">
        <ele>1611.7875976562</ele>
        <time>2012-06-10T11:41:27Z</time>
      </trkpt>
      <trkpt lat="42.7119" lon="1.55325">
        <ele>1608.9035644531</ele>
        <time>2012-06-10T11:41:34Z</time>
      </trkpt>
      <trkpt lat="42.71189" lon="1.55331">
        <ele>1606.9809570312</ele>
        <time>2012-06-10T11:41:38Z</time>
      </trkpt>
      <trkpt lat="42.71188" lon="1.55343">
        <ele>1604.5776367188</ele>
        <time>2012-06-10T11:41:44Z</time>
      </trkpt>
      <trkpt lat="42.71188" lon="1.55351">
        <ele>1603.1357421875</ele>
        <time>2012-06-10T11:41:49Z</time>
      </trkpt>
      <trkpt lat="42.7119" lon="1.55355">
        <ele>1601.6938476562</ele>
        <time>2012-06-10T11:41:55Z</time>
      </trkpt>
      <trkpt lat="42.71189" lon="1.55358">
        <ele>1601.6938476562</ele>
        <time>2012-06-10T11:42:01Z</time>
      </trkpt>
      <trkpt lat="42.71189" lon="1.55362">
        <ele>1601.2131347656</ele>
        <time>2012-06-10T11:42:06Z</time>
      </trkpt>
      <trkpt lat="42.71191" lon="1.55367">
        <ele>1599.2905273438</ele>
        <time>2012-06-10T11:42:13Z</time>
      </trkpt>
      <trkpt lat="42.71197" lon="1.55368">
        <ele>1597.3679199219</ele>
        <time>2012-06-10T11:42:20Z</time>
      </trkpt>
      <trkpt lat="42.71198" lon="1.55373">
        <ele>1595.92578125</ele>
        <time>2012-06-10T11:42:25Z</time>
      </trkpt>
      <trkpt lat="42.71197" lon="1.55378">
        <ele>1594.9643554688</ele>
        <time>2012-06-10T11:42:29Z</time>
      </trkpt>
      <trkpt lat="42.71194" lon="1.55385">
        <ele>1592.5612792969</ele>
        <time>2012-06-10T11:42:35Z</time>
      </trkpt>
      <trkpt lat="42.71191" lon="1.55392">
        <ele>1590.6384277344</ele>
        <time>2012-06-10T11:42:42Z</time>
      </trkpt>
      <trkpt lat="42.71189" lon="1.554">
        <ele>1590.1579589844</ele>
        <time>2012-06-10T11:42:48Z</time>
      </trkpt>
      <trkpt lat="42.71188" lon="1.55407">
        <ele>1589.1965332031</ele>
        <time>2012-06-10T11:42:54Z</time>
      </trkpt>
      <trkpt lat="42.71186" lon="1.55413">
        <ele>1587.7546386719</ele>
        <time>2012-06-10T11:42:59Z</time>
      </trkpt>
      <trkpt lat="42.71183" lon="1.55418">
        <ele>1587.2739257812</ele>
        <time>2012-06-10T11:43:03Z</time>
      </trkpt>
      <trkpt lat="42.7118" lon="1.55421">
        <ele>1586.7932128906</ele>
        <time>2012-06-10T11:43:07Z</time>
      </trkpt>
      <trkpt lat="42.71177" lon="1.55428">
        <ele>1587.7546386719</ele>
        <time>2012-06-10T11:43:14Z</time>
      </trkpt>
      <trkpt lat="42.71173" lon="1.55431">
        <ele>1588.7160644531</ele>
        <time>2012-06-10T11:43:20Z</time>
      </trkpt>
      <trkpt lat="42.71169" lon="1.55438">
        <ele>1589.6772460938</ele>
        <time>2012-06-10T11:43:28Z</time>
      </trkpt>
      <trkpt lat="42.71166" lon="1.55444">
        <ele>1589.1965332031</ele>
        <time>2012-06-10T11:43:34Z</time>
      </trkpt>
      <trkpt lat="42.71162" lon="1.55451">
        <ele>1586.7932128906</ele>
        <time>2012-06-10T11:43:41Z</time>
      </trkpt>
      <trkpt lat="42.71155" lon="1.55458">
        <ele>1586.7932128906</ele>
        <time>2012-06-10T11:43:49Z</time>
      </trkpt>
      <trkpt lat="42.71149" lon="1.55467">
        <ele>1586.7932128906</ele>
        <time>2012-06-10T11:43:57Z</time>
      </trkpt>
      <trkpt lat="42.71144" lon="1.55475">
        <ele>1588.2353515625</ele>
        <time>2012-06-10T11:44:06Z</time>
      </trkpt>
      <trkpt lat="42.71143" lon="1.55479">
        <ele>1587.2739257812</ele>
        <time>2012-06-10T11:44:12Z</time>
      </trkpt>
      <trkpt lat="42.71139" lon="1.55482">
        <ele>1585.83203125</ele>
        <time>2012-06-10T11:44:19Z</time>
      </trkpt>
      <trkpt lat="42.71135" lon="1.55488">
        <ele>1585.3513183594</ele>
        <time>2012-06-10T11:44:26Z</time>
      </trkpt>
      <trkpt lat="42.71133" lon="1.55492">
        <ele>1584.3901367188</ele>
        <time>2012-06-10T11:44:31Z</time>
      </trkpt>
      <trkpt lat="42.7113" lon="1.55497">
        <ele>1586.3127441406</ele>
        <time>2012-06-10T11:44:36Z</time>
      </trkpt>
      <trkpt lat="42.71127" lon="1.55502">
        <ele>1583.9094238281</ele>
        <time>2012-06-10T11:44:42Z</time>
      </trkpt>
      <trkpt lat="42.71124" lon="1.55508">
        <ele>1581.9868164062</ele>
        <time>2012-06-10T11:44:49Z</time>
      </trkpt>
      <trkpt lat="42.7112" lon="1.55516">
        <ele>1582.4675292969</ele>
        <time>2012-06-10T11:44:57Z</time>
      </trkpt>
      <trkpt lat="42.71115" lon="1.55522">
        <ele>1581.5061035156</ele>
        <time>2012-06-10T11:45:04Z</time>
      </trkpt>
      <trkpt lat="42.7111" lon="1.55529">
        <ele>1581.0256347656</ele>
        <time>2012-06-10T11:45:11Z</time>
      </trkpt>
      <trkpt lat="42.71107" lon="1.55538">
        <ele>1579.5832519531</ele>
        <time>2012-06-10T11:45:17Z</time>
      </trkpt>
      <trkpt lat="42.71105" lon="1.55546">
        <ele>1578.6220703125</ele>
        <time>2012-06-10T11:45:23Z</time>
      </trkpt>
      <trkpt lat="42.71104" lon="1.55551">
        <ele>1577.6606445312</ele>
        <time>2012-06-10T11:45:27Z</time>
      </trkpt>
      <trkpt lat="42.71099" lon="1.55563">
        <ele>1576.21875</ele>
        <time>2012-06-10T11:45:36Z</time>
      </trkpt>
      <trkpt lat="42.71095" lon="1.55576">
        <ele>1576.21875</ele>
        <time>2012-06-10T11:45:44Z</time>
      </trkpt>
      <trkpt lat="42.7109" lon="1.55585">
        <ele>1576.21875</ele>
        <time>2012-06-10T11:45:51Z</time>
      </trkpt>
      <trkpt lat="42.71087" lon="1.55592">
        <ele>1577.1801757812</ele>
        <time>2012-06-10T11:45:56Z</time>
      </trkpt>
      <trkpt lat="42.71083" lon="1.55599">
        <ele>1577.6606445312</ele>
        <time>2012-06-10T11:46:02Z</time>
      </trkpt>
      <trkpt lat="42.71076" lon="1.5561">
        <ele>1579.1025390625</ele>
        <time>2012-06-10T11:46:12Z</time>
      </trkpt>
      <trkpt lat="42.71074" lon="1.55616">
        <ele>1579.5832519531</ele>
        <time>2012-06-10T11:46:18Z</time>
      </trkpt>
      <trkpt lat="42.71073" lon="1.55625">
        <ele>1578.6220703125</ele>
        <time>2012-06-10T11:46:25Z</time>
      </trkpt>
      <trkpt lat="42.71069" lon="1.55634">
        <ele>1579.5832519531</ele>
        <time>2012-06-10T11:46:33Z</time>
      </trkpt>
      <trkpt lat="42.71066" lon="1.5564">
        <ele>1580.544921875</ele>
        <time>2012-06-10T11:46:39Z</time>
      </trkpt>
      <trkpt lat="42.71062" lon="1.5565">
        <ele>1581.0256347656</ele>
        <time>2012-06-10T11:46:47Z</time>
      </trkpt>
      <trkpt lat="42.71058" lon="1.5566">
        <ele>1584.8708496094</ele>
        <time>2012-06-10T11:46:55Z</time>
      </trkpt>
      <trkpt lat="42.71055" lon="1.55665">
        <ele>1584.8708496094</ele>
        <time>2012-06-10T11:47:01Z</time>
      </trkpt>
      <trkpt lat="42.71051" lon="1.55673">
        <ele>1585.83203125</ele>
        <time>2012-06-10T11:47:09Z</time>
      </trkpt>
      <trkpt lat="42.71046" lon="1.55681">
        <ele>1585.3513183594</ele>
        <time>2012-06-10T11:47:16Z</time>
      </trkpt>
      <trkpt lat="42.71043" lon="1.55687">
        <ele>1584.3901367188</ele>
        <time>2012-06-10T11:47:23Z</time>
      </trkpt>
      <trkpt lat="42.7104" lon="1.55695">
        <ele>1584.3901367188</ele>
        <time>2012-06-10T11:47:30Z</time>
      </trkpt>
      <trkpt lat="42.71034" lon="1.55705">
        <ele>1583.9094238281</ele>
        <time>2012-06-10T11:47:39Z</time>
      </trkpt>
      <trkpt lat="42.71029" lon="1.55715">
        <ele>1583.4287109375</ele>
        <time>2012-06-10T11:47:46Z</time>
      </trkpt>
      <trkpt lat="42.71025" lon="1.5572">
        <ele>1585.3513183594</ele>
        <time>2012-06-10T11:47:50Z</time>
      </trkpt>
      <trkpt lat="42.71022" lon="1.55729">
        <ele>1585.83203125</ele>
        <time>2012-06-10T11:47:57Z</time>
      </trkpt>
      <trkpt lat="42.71021" lon="1.55737">
        <ele>1586.7932128906</ele>
        <time>2012-06-10T11:48:04Z</time>
      </trkpt>
      <trkpt lat="42.71019" lon="1.55746">
        <ele>1588.7160644531</ele>
        <time>2012-06-10T11:48:11Z</time>
      </trkpt>
      <trkpt lat="42.71015" lon="1.55753">
        <ele>1589.1965332031</ele>
        <time>2012-06-10T11:48:17Z</time>
      </trkpt>
      <trkpt lat="42.71009" lon="1.55758">
        <ele>1587.7546386719</ele>
        <time>2012-06-10T11:48:24Z</time>
      </trkpt>
      <trkpt lat="42.71006" lon="1.55762">
        <ele>1586.3127441406</ele>
        <time>2012-06-10T11:48:29Z</time>
      </trkpt>
      <trkpt lat="42.71" lon="1.55768">
        <ele>1584.8708496094</ele>
        <time>2012-06-10T11:48:36Z</time>
      </trkpt>
      <trkpt lat="42.70994" lon="1.55777">
        <ele>1582.4675292969</ele>
        <time>2012-06-10T11:48:44Z</time>
      </trkpt>
      <trkpt lat="42.70988" lon="1.55787">
        <ele>1580.0642089844</ele>
        <time>2012-06-10T11:48:52Z</time>
      </trkpt>
      <trkpt lat="42.70977" lon="1.55793">
        <ele>1578.1413574219</ele>
        <time>2012-06-10T11:49:01Z</time>
      </trkpt>
      <trkpt lat="42.70972" lon="1.55799">
        <ele>1577.1801757812</ele>
        <time>2012-06-10T11:49:07Z</time>
      </trkpt>
      <trkpt lat="42.7097" lon="1.55801">
        <ele>1575.7380371094</ele>
        <time>2012-06-10T11:49:10Z</time>
      </trkpt>
      <trkpt lat="42.70966" lon="1.55806">
        <ele>1573.3349609375</ele>
        <time>2012-06-10T11:49:17Z</time>
      </trkpt>
      <trkpt lat="42.70959" lon="1.5581">
        <ele>1570.931640625</ele>
        <time>2012-06-10T11:49:24Z</time>
      </trkpt>
      <trkpt lat="42.70955" lon="1.55814">
        <ele>1569.9702148438</ele>
        <time>2012-06-10T11:49:29Z</time>
      </trkpt>
      <trkpt lat="42.70951" lon="1.55817">
        <ele>1569.4897460938</ele>
        <time>2012-06-10T11:49:33Z</time>
      </trkpt>
      <trkpt lat="42.70945" lon="1.55822">
        <ele>1568.0476074219</ele>
        <time>2012-06-10T11:49:39Z</time>
      </trkpt>
      <trkpt lat="42.7094" lon="1.55827">
        <ele>1565.64453125</ele>
        <time>2012-06-10T11:49:45Z</time>
      </trkpt>
      <trkpt lat="42.70937" lon="1.55831">
        <ele>1565.1638183594</ele>
        <time>2012-06-10T11:49:48Z</time>
      </trkpt>
      <trkpt lat="42.70932" lon="1.55836">
        <ele>1563.7214355469</ele>
        <time>2012-06-10T11:49:54Z</time>
      </trkpt>
      <trkpt lat="42.70932" lon="1.55836">
        <ele>1563.2409667969</ele>
        <time>2012-06-10T11:49:55Z</time>
      </trkpt>
      <trkpt lat="42.70929" lon="1.55843">
        <ele>1562.2795410156</ele>
        <time>2012-06-10T11:50:02Z</time>
      </trkpt>
      <trkpt lat="42.70925" lon="1.5585">
        <ele>1560.8376464844</ele>
        <time>2012-06-10T11:50:08Z</time>
      </trkpt>
      <trkpt lat="42.70921" lon="1.55855">
        <ele>1559.3957519531</ele>
        <time>2012-06-10T11:50:12Z</time>
      </trkpt>
      <trkpt lat="42.70918" lon="1.55857">
        <ele>1557.4731445312</ele>
        <time>2012-06-10T11:50:15Z</time>
      </trkpt>
      <trkpt lat="42.70913" lon="1.55864">
        <ele>1556.0310058594</ele>
        <time>2012-06-10T11:50:21Z</time>
      </trkpt>
      <trkpt lat="42.70905" lon="1.5587">
        <ele>1552.6665039062</ele>
        <time>2012-06-10T11:50:28Z</time>
      </trkpt>
      <trkpt lat="42.70903" lon="1.55872">
        <ele>1552.1857910156</ele>
        <time>2012-06-10T11:50:30Z</time>
      </trkpt>
      <trkpt lat="42.70899" lon="1.55878">
        <ele>1550.2634277344</ele>
        <time>2012-06-10T11:50:36Z</time>
      </trkpt>
      <trkpt lat="42.70888" lon="1.55887">
        <ele>1546.8984375</ele>
        <time>2012-06-10T11:50:43Z</time>
      </trkpt>
      <trkpt lat="42.7088" lon="1.55894">
        <ele>1544.9758300781</ele>
        <time>2012-06-10T11:50:47Z</time>
      </trkpt>
      <trkpt lat="42.70878" lon="1.55897">
        <ele>1545.4565429688</ele>
        <time>2012-06-10T11:50:49Z</time>
      </trkpt>
      <trkpt lat="42.70876" lon="1.55903">
        <ele>1543.5339355469</ele>
        <time>2012-06-10T11:50:53Z</time>
      </trkpt>
      <trkpt lat="42.70875" lon="1.55911">
        <ele>1544.4951171875</ele>
        <time>2012-06-10T11:50:59Z</time>
      </trkpt>
      <trkpt lat="42.70875" lon="1.55919">
        <ele>1544.4951171875</ele>
        <time>2012-06-10T11:51:04Z</time>
      </trkpt>
      <trkpt lat="42.70876" lon="1.55928">
        <ele>1542.5727539062</ele>
        <time>2012-06-10T11:51:12Z</time>
      </trkpt>
      <trkpt lat="42.70875" lon="1.55934">
        <ele>1540.6499023438</ele>
        <time>2012-06-10T11:51:18Z</time>
      </trkpt>
      <trkpt lat="42.70873" lon="1.5594">
        <ele>1539.2080078125</ele>
        <time>2012-06-10T11:51:23Z</time>
      </trkpt>
      <trkpt lat="42.7087" lon="1.55947">
        <ele>1538.7275390625</ele>
        <time>2012-06-10T11:51:28Z</time>
      </trkpt>
      <trkpt lat="42.70863" lon="1.55957">
        <ele>1537.2854003906</ele>
        <time>2012-06-10T11:51:36Z</time>
      </trkpt>
      <trkpt lat="42.70858" lon="1.55963">
        <ele>1537.2854003906</ele>
        <time>2012-06-10T11:51:41Z</time>
      </trkpt>
      <trkpt lat="42.70855" lon="1.55966">
        <ele>1536.8046875</ele>
        <time>2012-06-10T11:51:44Z</time>
      </trkpt>
      <trkpt lat="42.70853" lon="1.55971">
        <ele>1534.8823242188</ele>
        <time>2012-06-10T11:51:49Z</time>
      </trkpt>
      <trkpt lat="42.70848" lon="1.55978">
        <ele>1532.9594726562</ele>
        <time>2012-06-10T11:51:57Z</time>
      </trkpt>
      <trkpt lat="42.70845" lon="1.55985">
        <ele>1531.0368652344</ele>
        <time>2012-06-10T11:52:03Z</time>
      </trkpt>
      <trkpt lat="42.70842" lon="1.55989">
        <ele>1529.5947265625</ele>
        <time>2012-06-10T11:52:07Z</time>
      </trkpt>
      <trkpt lat="42.70841" lon="1.55991">
        <ele>1529.1140136719</ele>
        <time>2012-06-10T11:52:09Z</time>
      </trkpt>
      <trkpt lat="42.70837" lon="1.55995">
        <ele>1527.6721191406</ele>
        <time>2012-06-10T11:52:13Z</time>
      </trkpt>
      <trkpt lat="42.70834" lon="1.55999">
        <ele>1526.7109375</ele>
        <time>2012-06-10T11:52:16Z</time>
      </trkpt>
      <trkpt lat="42.70831" lon="1.56005">
        <ele>1524.7883300781</ele>
        <time>2012-06-10T11:52:21Z</time>
      </trkpt>
      <trkpt lat="42.70827" lon="1.5601">
        <ele>1522.8657226562</ele>
        <time>2012-06-10T11:52:26Z</time>
      </trkpt>
      <trkpt lat="42.7083" lon="1.56012">
        <ele>1521.4235839844</ele>
        <time>2012-06-10T11:52:30Z</time>
      </trkpt>
      <trkpt lat="42.70838" lon="1.56011">
        <ele>1519.5012207031</ele>
        <time>2012-06-10T11:52:37Z</time>
      </trkpt>
      <trkpt lat="42.70843" lon="1.5601">
        <ele>1517.5783691406</ele>
        <time>2012-06-10T11:52:43Z</time>
      </trkpt>
      <trkpt lat="42.70845" lon="1.56013">
        <ele>1516.1364746094</ele>
        <time>2012-06-10T11:52:48Z</time>
      </trkpt>
      <trkpt lat="42.70844" lon="1.56019">
        <ele>1514.6943359375</ele>
        <time>2012-06-10T11:52:54Z</time>
      </trkpt>
      <trkpt lat="42.70843" lon="1.56026">
        <ele>1512.291015625</ele>
        <time>2012-06-10T11:53:00Z</time>
      </trkpt>
      <trkpt lat="42.70844" lon="1.56032">
        <ele>1510.8491210938</ele>
        <time>2012-06-10T11:53:05Z</time>
      </trkpt>
      <trkpt lat="42.70847" lon="1.56039">
        <ele>1509.4072265625</ele>
        <time>2012-06-10T11:53:11Z</time>
      </trkpt>
      <trkpt lat="42.70849" lon="1.56044">
        <ele>1507.9653320312</ele>
        <time>2012-06-10T11:53:17Z</time>
      </trkpt>
      <trkpt lat="42.70853" lon="1.56045">
        <ele>1506.5231933594</ele>
        <time>2012-06-10T11:53:22Z</time>
      </trkpt>
      <trkpt lat="42.70856" lon="1.5605">
        <ele>1505.0812988281</ele>
        <time>2012-06-10T11:53:27Z</time>
      </trkpt>
      <trkpt lat="42.70859" lon="1.56054">
        <ele>1504.6005859375</ele>
        <time>2012-06-10T11:53:31Z</time>
      </trkpt>
      <trkpt lat="42.70866" lon="1.5606">
        <ele>1504.6005859375</ele>
        <time>2012-06-10T11:53:38Z</time>
      </trkpt>
      <trkpt lat="42.70868" lon="1.56062">
        <ele>1504.1201171875</ele>
        <time>2012-06-10T11:53:40Z</time>
      </trkpt>
      <trkpt lat="42.7087" lon="1.56069">
        <ele>1503.1586914062</ele>
        <time>2012-06-10T11:53:46Z</time>
      </trkpt>
      <trkpt lat="42.70873" lon="1.56077">
        <ele>1503.6394042969</ele>
        <time>2012-06-10T11:53:53Z</time>
      </trkpt>
      <trkpt lat="42.70875" lon="1.5608">
        <ele>1504.1201171875</ele>
        <time>2012-06-10T11:53:56Z</time>
      </trkpt>
      <trkpt lat="42.70877" lon="1.56081">
        <ele>1504.6005859375</ele>
        <time>2012-06-10T11:53:58Z</time>
      </trkpt>
      <trkpt lat="42.70882" lon="1.56083">
        <ele>1506.0424804688</ele>
        <time>2012-06-10T11:54:02Z</time>
      </trkpt>
      <trkpt lat="42.70888" lon="1.56088">
        <ele>1506.0424804688</ele>
        <time>2012-06-10T11:54:10Z</time>
      </trkpt>
      <trkpt lat="42.70892" lon="1.5609">
        <ele>1507.4846191406</ele>
        <time>2012-06-10T11:54:15Z</time>
      </trkpt>
      <trkpt lat="42.70895" lon="1.56091">
        <ele>1507.4846191406</ele>
        <time>2012-06-10T11:54:22Z</time>
      </trkpt>
      <trkpt lat="42.70898" lon="1.5609">
        <ele>1507.9653320312</ele>
        <time>2012-06-10T11:54:26Z</time>
      </trkpt>
      <trkpt lat="42.70904" lon="1.56081">
        <ele>1509.4072265625</ele>
        <time>2012-06-10T11:54:33Z</time>
      </trkpt>
      <trkpt lat="42.70906" lon="1.56078">
        <ele>1508.9265136719</ele>
        <time>2012-06-10T11:54:38Z</time>
      </trkpt>
      <trkpt lat="42.70909" lon="1.56071">
        <ele>1507.4846191406</ele>
        <time>2012-06-10T11:54:43Z</time>
      </trkpt>
      <trkpt lat="42.70914" lon="1.56067">
        <ele>1507.4846191406</ele>
        <time>2012-06-10T11:54:48Z</time>
      </trkpt>
      <trkpt lat="42.70918" lon="1.56066">
        <ele>1507.9653320312</ele>
        <time>2012-06-10T11:54:51Z</time>
      </trkpt>
      <trkpt lat="42.70925" lon="1.56052">
        <ele>1506.0424804688</ele>
        <time>2012-06-10T11:55:02Z</time>
      </trkpt>
      <trkpt lat="42.70928" lon="1.56043">
        <ele>1505.5620117188</ele>
        <time>2012-06-10T11:55:06Z</time>
      </trkpt>
      <trkpt lat="42.70931" lon="1.56031">
        <ele>1504.6005859375</ele>
        <time>2012-06-10T11:55:11Z</time>
      </trkpt>
      <trkpt lat="42.70933" lon="1.56029">
        <ele>1504.6005859375</ele>
        <time>2012-06-10T11:55:12Z</time>
      </trkpt>
      <trkpt lat="42.70936" lon="1.56023">
        <ele>1505.0812988281</ele>
        <time>2012-06-10T11:55:14Z</time>
      </trkpt>
      <trkpt lat="42.70943" lon="1.56013">
        <ele>1505.0812988281</ele>
        <time>2012-06-10T11:55:19Z</time>
      </trkpt>
      <trkpt lat="42.70948" lon="1.5601">
        <ele>1505.0812988281</ele>
        <time>2012-06-10T11:55:22Z</time>
      </trkpt>
      <trkpt lat="42.70953" lon="1.55999">
        <ele>1503.6394042969</ele>
        <time>2012-06-10T11:55:26Z</time>
      </trkpt>
      <trkpt lat="42.70958" lon="1.55995">
        <ele>1502.197265625</ele>
        <time>2012-06-10T11:55:30Z</time>
      </trkpt>
      <trkpt lat="42.70963" lon="1.55988">
        <ele>1501.2360839844</ele>
        <time>2012-06-10T11:55:35Z</time>
      </trkpt>
      <trkpt lat="42.70964" lon="1.55986">
        <ele>1500.7553710938</ele>
        <time>2012-06-10T11:55:36Z</time>
      </trkpt>
      <trkpt lat="42.70969" lon="1.5598">
        <ele>1500.2749023438</ele>
        <time>2012-06-10T11:55:39Z</time>
      </trkpt>
      <trkpt lat="42.70974" lon="1.55972">
        <ele>1499.7939453125</ele>
        <time>2012-06-10T11:55:44Z</time>
      </trkpt>
      <trkpt lat="42.70977" lon="1.55969">
        <ele>1499.7939453125</ele>
        <time>2012-06-10T11:55:46Z</time>
      </trkpt>
      <trkpt lat="42.70984" lon="1.55958">
        <ele>1498.3518066406</ele>
        <time>2012-06-10T11:55:51Z</time>
      </trkpt>
      <trkpt lat="42.70992" lon="1.55954">
        <ele>1497.390625</ele>
        <time>2012-06-10T11:55:56Z</time>
      </trkpt>
      <trkpt lat="42.70997" lon="1.55949">
        <ele>1495.9487304688</ele>
        <time>2012-06-10T11:56:01Z</time>
      </trkpt>
      <trkpt lat="42.71001" lon="1.55947">
        <ele>1495.9487304688</ele>
        <time>2012-06-10T11:56:04Z</time>
      </trkpt>
      <trkpt lat="42.71004" lon="1.55942">
        <ele>1494.9873046875</ele>
        <time>2012-06-10T11:56:10Z</time>
      </trkpt>
      <trkpt lat="42.71007" lon="1.55935">
        <ele>1494.9873046875</ele>
        <time>2012-06-10T11:56:17Z</time>
      </trkpt>
      <trkpt lat="42.71009" lon="1.55932">
        <ele>1493.0646972656</ele>
        <time>2012-06-10T11:56:22Z</time>
      </trkpt>
      <trkpt lat="42.71008" lon="1.55927">
        <ele>1492.103515625</ele>
        <time>2012-06-10T11:56:26Z</time>
      </trkpt>
      <trkpt lat="42.71009" lon="1.55919">
        <ele>1490.1809082031</ele>
        <time>2012-06-10T11:56:31Z</time>
      </trkpt>
      <trkpt lat="42.71011" lon="1.55914">
        <ele>1489.2194824219</ele>
        <time>2012-06-10T11:56:35Z</time>
      </trkpt>
      <trkpt lat="42.71014" lon="1.5591">
        <ele>1488.2583007812</ele>
        <time>2012-06-10T11:56:39Z</time>
      </trkpt>
      <trkpt lat="42.71023" lon="1.55906">
        <ele>1487.296875</ele>
        <time>2012-06-10T11:56:46Z</time>
      </trkpt>
      <trkpt lat="42.7103" lon="1.55906">
        <ele>1486.8161621094</ele>
        <time>2012-06-10T11:56:50Z</time>
      </trkpt>
      <trkpt lat="42.71035" lon="1.55909">
        <ele>1487.7775878906</ele>
        <time>2012-06-10T11:56:55Z</time>
      </trkpt>
      <trkpt lat="42.71037" lon="1.55908">
        <ele>1488.2583007812</ele>
        <time>2012-06-10T11:56:56Z</time>
      </trkpt>
      <trkpt lat="42.71045" lon="1.55903">
        <ele>1489.7001953125</ele>
        <time>2012-06-10T11:57:02Z</time>
      </trkpt>
      <trkpt lat="42.71054" lon="1.55899">
        <ele>1489.2194824219</ele>
        <time>2012-06-10T11:57:08Z</time>
      </trkpt>
      <trkpt lat="42.71059" lon="1.55896">
        <ele>1489.2194824219</ele>
        <time>2012-06-10T11:57:12Z</time>
      </trkpt>
      <trkpt lat="42.71064" lon="1.5589">
        <ele>1489.2194824219</ele>
        <time>2012-06-10T11:57:18Z</time>
      </trkpt>
      <trkpt lat="42.71072" lon="1.55882">
        <ele>1490.6613769531</ele>
        <time>2012-06-10T11:57:25Z</time>
      </trkpt>
      <trkpt lat="42.71075" lon="1.55882">
        <ele>1489.7001953125</ele>
        <time>2012-06-10T11:57:27Z</time>
      </trkpt>
      <trkpt lat="42.71076" lon="1.55882">
        <ele>1488.7390136719</ele>
        <time>2012-06-10T11:57:29Z</time>
      </trkpt>
      <trkpt lat="42.71077" lon="1.55878">
        <ele>1485.3742675781</ele>
        <time>2012-06-10T11:57:35Z</time>
      </trkpt>
      <trkpt lat="42.7108" lon="1.55875">
        <ele>1483.9321289062</ele>
        <time>2012-06-10T11:57:39Z</time>
      </trkpt>
      <trkpt lat="42.71089" lon="1.55869">
        <ele>1482.0095214844</ele>
        <time>2012-06-10T11:57:45Z</time>
      </trkpt>
      <trkpt lat="42.71095" lon="1.55867">
        <ele>1482.0095214844</ele>
        <time>2012-06-10T11:57:48Z</time>
      </trkpt>
      <trkpt lat="42.71098" lon="1.55868">
        <ele>1481.0483398438</ele>
        <time>2012-06-10T11:57:50Z</time>
      </trkpt>
      <trkpt lat="42.71106" lon="1.5586">
        <ele>1480.0869140625</ele>
        <time>2012-06-10T11:57:57Z</time>
      </trkpt>
      <trkpt lat="42.71107" lon="1.55859">
        <ele>1479.6062011719</ele>
        <time>2012-06-10T11:57:58Z</time>
      </trkpt>
      <trkpt lat="42.71116" lon="1.55851">
        <ele>1476.7224121094</ele>
        <time>2012-06-10T11:58:06Z</time>
      </trkpt>
      <trkpt lat="42.71125" lon="1.55844">
        <ele>1474.7998046875</ele>
        <time>2012-06-10T11:58:10Z</time>
      </trkpt>
      <trkpt lat="42.71126" lon="1.55842">
        <ele>1474.7998046875</ele>
        <time>2012-06-10T11:58:11Z</time>
      </trkpt>
      <trkpt lat="42.71131" lon="1.55834">
        <ele>1474.3190917969</ele>
        <time>2012-06-10T11:58:17Z</time>
      </trkpt>
      <trkpt lat="42.7114" lon="1.55828">
        <ele>1472.8771972656</ele>
        <time>2012-06-10T11:58:21Z</time>
      </trkpt>
      <trkpt lat="42.71143" lon="1.55823">
        <ele>1471.9157714844</ele>
        <time>2012-06-10T11:58:24Z</time>
      </trkpt>
      <trkpt lat="42.71152" lon="1.55815">
        <ele>1470.4738769531</ele>
        <time>2012-06-10T11:58:30Z</time>
      </trkpt>
      <trkpt lat="42.71156" lon="1.55813">
        <ele>1469.9931640625</ele>
        <time>2012-06-10T11:58:32Z</time>
      </trkpt>
      <trkpt lat="42.71157" lon="1.5581">
        <ele>1469.9931640625</ele>
        <time>2012-06-10T11:58:34Z</time>
      </trkpt>
      <trkpt lat="42.71163" lon="1.55807">
        <ele>1469.0319824219</ele>
        <time>2012-06-10T11:58:42Z</time>
      </trkpt>
      <trkpt lat="42.71166" lon="1.55808">
        <ele>1469.0319824219</ele>
        <time>2012-06-10T11:58:46Z</time>
      </trkpt>
      <trkpt lat="42.7117" lon="1.55802">
        <ele>1467.5895996094</ele>
        <time>2012-06-10T11:58:52Z</time>
      </trkpt>
      <trkpt lat="42.71171" lon="1.558">
        <ele>1467.1091308594</ele>
        <time>2012-06-10T11:58:53Z</time>
      </trkpt>
      <trkpt lat="42.71173" lon="1.55795">
        <ele>1466.6284179688</ele>
        <time>2012-06-10T11:58:56Z</time>
      </trkpt>
      <trkpt lat="42.71176" lon="1.55795">
        <ele>1466.1477050781</ele>
        <time>2012-06-10T11:58:59Z</time>
      </trkpt>
      <trkpt lat="42.71181" lon="1.55792">
        <ele>1464.2250976562</ele>
        <time>2012-06-10T11:59:03Z</time>
      </trkpt>
      <trkpt lat="42.71184" lon="1.55788">
        <ele>1462.783203125</ele>
        <time>2012-06-10T11:59:07Z</time>
      </trkpt>
      <trkpt lat="42.71194" lon="1.55782">
        <ele>1463.2639160156</ele>
        <time>2012-06-10T11:59:13Z</time>
      </trkpt>
      <trkpt lat="42.71195" lon="1.55781">
        <ele>1463.7443847656</ele>
        <time>2012-06-10T11:59:14Z</time>
      </trkpt>
      <trkpt lat="42.71198" lon="1.55772">
        <ele>1463.7443847656</ele>
        <time>2012-06-10T11:59:21Z</time>
      </trkpt>
      <trkpt lat="42.71202" lon="1.55772">
        <ele>1464.2250976562</ele>
        <time>2012-06-10T11:59:27Z</time>
      </trkpt>
      <trkpt lat="42.71207" lon="1.55773">
        <ele>1463.2639160156</ele>
        <time>2012-06-10T11:59:32Z</time>
      </trkpt>
      <trkpt lat="42.7121" lon="1.55771">
        <ele>1461.8220214844</ele>
        <time>2012-06-10T11:59:36Z</time>
      </trkpt>
      <trkpt lat="42.71218" lon="1.55766">
        <ele>1460.3798828125</ele>
        <time>2012-06-10T11:59:43Z</time>
      </trkpt>
      <trkpt lat="42.71222" lon="1.55762">
        <ele>1459.8991699219</ele>
        <time>2012-06-10T11:59:49Z</time>
      </trkpt>
      <trkpt lat="42.71228" lon="1.55759">
        <ele>1459.4187011719</ele>
        <time>2012-06-10T11:59:54Z</time>
      </trkpt>
      <trkpt lat="42.71229" lon="1.55758">
        <ele>1459.8991699219</ele>
        <time>2012-06-10T11:59:55Z</time>
      </trkpt>
      <trkpt lat="42.71234" lon="1.55756">
        <ele>1459.4187011719</ele>
        <time>2012-06-10T11:59:59Z</time>
      </trkpt>
      <trkpt lat="42.71241" lon="1.5575">
        <ele>1458.9379882812</ele>
        <time>2012-06-10T12:00:06Z</time>
      </trkpt>
      <trkpt lat="42.71245" lon="1.55748">
        <ele>1458.9379882812</ele>
        <time>2012-06-10T12:00:09Z</time>
      </trkpt>
      <trkpt lat="42.71252" lon="1.55741">
        <ele>1457.9768066406</ele>
        <time>2012-06-10T12:00:16Z</time>
      </trkpt>
      <trkpt lat="42.71254" lon="1.5574">
        <ele>1457.0153808594</ele>
        <time>2012-06-10T12:00:19Z</time>
      </trkpt>
      <trkpt lat="42.71258" lon="1.55734">
        <ele>1456.5346679688</ele>
        <time>2012-06-10T12:00:27Z</time>
      </trkpt>
      <trkpt lat="42.7126" lon="1.55732">
        <ele>1457.49609375</ele>
        <time>2012-06-10T12:00:31Z</time>
      </trkpt>
      <trkpt lat="42.71266" lon="1.55731">
        <ele>1456.5346679688</ele>
        <time>2012-06-10T12:00:36Z</time>
      </trkpt>
      <trkpt lat="42.71269" lon="1.5573">
        <ele>1455.5734863281</ele>
        <time>2012-06-10T12:00:39Z</time>
      </trkpt>
      <trkpt lat="42.71275" lon="1.55726">
        <ele>1456.5346679688</ele>
        <time>2012-06-10T12:00:45Z</time>
      </trkpt>
      <trkpt lat="42.71276" lon="1.55726">
        <ele>1457.0153808594</ele>
        <time>2012-06-10T12:00:46Z</time>
      </trkpt>
      <trkpt lat="42.71289" lon="1.55723">
        <ele>1457.9768066406</ele>
        <time>2012-06-10T12:00:54Z</time>
      </trkpt>
      <trkpt lat="42.71293" lon="1.55721">
        <ele>1457.9768066406</ele>
        <time>2012-06-10T12:00:58Z</time>
      </trkpt>
      <trkpt lat="42.71299" lon="1.5572">
        <ele>1456.5346679688</ele>
        <time>2012-06-10T12:01:03Z</time>
      </trkpt>
      <trkpt lat="42.71303" lon="1.5572">
        <ele>1452.689453125</ele>
        <time>2012-06-10T12:01:10Z</time>
      </trkpt>
      <trkpt lat="42.71309" lon="1.55717">
        <ele>1450.2861328125</ele>
        <time>2012-06-10T12:01:16Z</time>
      </trkpt>
      <trkpt lat="42.71313" lon="1.55718">
        <ele>1448.8439941406</ele>
        <time>2012-06-10T12:01:21Z</time>
      </trkpt>
      <trkpt lat="42.71315" lon="1.55718">
        <ele>1447.8828125</ele>
        <time>2012-06-10T12:01:23Z</time>
      </trkpt>
      <trkpt lat="42.71322" lon="1.55716">
        <ele>1445.9602050781</ele>
        <time>2012-06-10T12:01:30Z</time>
      </trkpt>
      <trkpt lat="42.71328" lon="1.55713">
        <ele>1445.9602050781</ele>
        <time>2012-06-10T12:01:37Z</time>
      </trkpt>
      <trkpt lat="42.71335" lon="1.55713">
        <ele>1444.9987792969</ele>
        <time>2012-06-10T12:01:43Z</time>
      </trkpt>
      <trkpt lat="42.71343" lon="1.55711">
        <ele>1444.5180664062</ele>
        <time>2012-06-10T12:01:50Z</time>
      </trkpt>
      <trkpt lat="42.71353" lon="1.55711">
        <ele>1443.076171875</ele>
        <time>2012-06-10T12:01:57Z</time>
      </trkpt>
      <trkpt lat="42.71357" lon="1.55704">
        <ele>1440.6728515625</ele>
        <time>2012-06-10T12:02:03Z</time>
      </trkpt>
      <trkpt lat="42.71362" lon="1.55698">
        <ele>1440.1923828125</ele>
        <time>2012-06-10T12:02:09Z</time>
      </trkpt>
      <trkpt lat="42.71369" lon="1.55694">
        <ele>1438.7504882812</ele>
        <time>2012-06-10T12:02:16Z</time>
      </trkpt>
      <trkpt lat="42.71373" lon="1.55691">
        <ele>1438.2697753906</ele>
        <time>2012-06-10T12:02:23Z</time>
      </trkpt>
      <trkpt lat="42.71377" lon="1.55688">
        <ele>1436.3471679688</ele>
        <time>2012-06-10T12:02:29Z</time>
      </trkpt>
      <trkpt lat="42.71379" lon="1.55689">
        <ele>1434.4243164062</ele>
        <time>2012-06-10T12:02:36Z</time>
      </trkpt>
      <trkpt lat="42.71384" lon="1.55689">
        <ele>1433.462890625</ele>
        <time>2012-06-10T12:02:41Z</time>
      </trkpt>
      <trkpt lat="42.7139" lon="1.55689">
        <ele>1432.0209960938</ele>
        <time>2012-06-10T12:02:47Z</time>
      </trkpt>
      <trkpt lat="42.71392" lon="1.55691">
        <ele>1431.0598144531</ele>
        <time>2012-06-10T12:02:52Z</time>
      </trkpt>
      <trkpt lat="42.71395" lon="1.55692">
        <ele>1429.1369628906</ele>
        <time>2012-06-10T12:02:58Z</time>
      </trkpt>
      <trkpt lat="42.71399" lon="1.55689">
        <ele>1430.0983886719</ele>
        <time>2012-06-10T12:03:02Z</time>
      </trkpt>
      <trkpt lat="42.71403" lon="1.55685">
        <ele>1430.0983886719</ele>
        <time>2012-06-10T12:03:06Z</time>
      </trkpt>
      <trkpt lat="42.71407" lon="1.55682">
        <ele>1427.6950683594</ele>
        <time>2012-06-10T12:03:10Z</time>
      </trkpt>
      <trkpt lat="42.71409" lon="1.55683">
        <ele>1426.7338867188</ele>
        <time>2012-06-10T12:03:13Z</time>
      </trkpt>
      <trkpt lat="42.71412" lon="1.55679">
        <ele>1428.6564941406</ele>
        <time>2012-06-10T12:03:15Z</time>
      </trkpt>
      <trkpt lat="42.71416" lon="1.55678">
        <ele>1429.6176757812</ele>
        <time>2012-06-10T12:03:18Z</time>
      </trkpt>
      <trkpt lat="42.7142" lon="1.55671">
        <ele>1427.2145996094</ele>
        <time>2012-06-10T12:03:25Z</time>
      </trkpt>
      <trkpt lat="42.71424" lon="1.55663">
        <ele>1424.3305664062</ele>
        <time>2012-06-10T12:03:32Z</time>
      </trkpt>
      <trkpt lat="42.71427" lon="1.55657">
        <ele>1422.888671875</ele>
        <time>2012-06-10T12:03:39Z</time>
      </trkpt>
      <trkpt lat="42.71428" lon="1.55653">
        <ele>1421.4465332031</ele>
        <time>2012-06-10T12:03:43Z</time>
      </trkpt>
      <trkpt lat="42.7143" lon="1.55649">
        <ele>1420.4853515625</ele>
        <time>2012-06-10T12:03:48Z</time>
      </trkpt>
      <trkpt lat="42.71433" lon="1.55643">
        <ele>1419.0432128906</ele>
        <time>2012-06-10T12:03:55Z</time>
      </trkpt>
      <trkpt lat="42.71436" lon="1.55639">
        <ele>1419.0432128906</ele>
        <time>2012-06-10T12:03:59Z</time>
      </trkpt>
      <trkpt lat="42.71438" lon="1.55632">
        <ele>1418.5625</ele>
        <time>2012-06-10T12:04:05Z</time>
      </trkpt>
      <trkpt lat="42.7144" lon="1.55628">
        <ele>1418.5625</ele>
        <time>2012-06-10T12:04:08Z</time>
      </trkpt>
      <trkpt lat="42.71442" lon="1.55625">
        <ele>1419.0432128906</ele>
        <time>2012-06-10T12:04:11Z</time>
      </trkpt>
      <trkpt lat="42.71447" lon="1.55617">
        <ele>1419.5239257812</ele>
        <time>2012-06-10T12:04:18Z</time>
      </trkpt>
      <trkpt lat="42.7145" lon="1.55612">
        <ele>1418.0817871094</ele>
        <time>2012-06-10T12:04:24Z</time>
      </trkpt>
      <trkpt lat="42.71453" lon="1.55608">
        <ele>1418.0817871094</ele>
        <time>2012-06-10T12:04:28Z</time>
      </trkpt>
      <trkpt lat="42.71455" lon="1.55603">
        <ele>1417.1206054688</ele>
        <time>2012-06-10T12:04:31Z</time>
      </trkpt>
      <trkpt lat="42.71458" lon="1.55599">
        <ele>1416.1591796875</ele>
        <time>2012-06-10T12:04:36Z</time>
      </trkpt>
      <trkpt lat="42.7146" lon="1.55597">
        <ele>1416.1591796875</ele>
        <time>2012-06-10T12:04:38Z</time>
      </trkpt>
      <trkpt lat="42.71463" lon="1.55593">
        <ele>1415.6787109375</ele>
        <time>2012-06-10T12:04:42Z</time>
      </trkpt>
      <trkpt lat="42.71468" lon="1.5559">
        <ele>1412.7946777344</ele>
        <time>2012-06-10T12:04:47Z</time>
      </trkpt>
      <trkpt lat="42.71472" lon="1.55587">
        <ele>1413.755859375</ele>
        <time>2012-06-10T12:04:51Z</time>
      </trkpt>
      <trkpt lat="42.71476" lon="1.55589">
        <ele>1418.5625</ele>
        <time>2012-06-10T12:04:57Z</time>
      </trkpt>
      <trkpt lat="42.7148" lon="1.55593">
        <ele>1419.5239257812</ele>
        <time>2012-06-10T12:05:02Z</time>
      </trkpt>
      <trkpt lat="42.71488" lon="1.55593">
        <ele>1424.3305664062</ele>
        <time>2012-06-10T12:05:13Z</time>
      </trkpt>
      <trkpt lat="42.71492" lon="1.55596">
        <ele>1423.3693847656</ele>
        <time>2012-06-10T12:05:17Z</time>
      </trkpt>
      <trkpt lat="42.71499" lon="1.55599">
        <ele>1420.9660644531</ele>
        <time>2012-06-10T12:05:23Z</time>
      </trkpt>
      <trkpt lat="42.71505" lon="1.55603">
        <ele>1418.5625</ele>
        <time>2012-06-10T12:05:29Z</time>
      </trkpt>
      <trkpt lat="42.71506" lon="1.55603">
        <ele>1418.0817871094</ele>
        <time>2012-06-10T12:05:30Z</time>
      </trkpt>
      <trkpt lat="42.71511" lon="1.55605">
        <ele>1418.0817871094</ele>
        <time>2012-06-10T12:05:37Z</time>
      </trkpt>
      <trkpt lat="42.71517" lon="1.55607">
        <ele>1416.6398925781</ele>
        <time>2012-06-10T12:05:43Z</time>
      </trkpt>
      <trkpt lat="42.71521" lon="1.55609">
        <ele>1420.4853515625</ele>
        <time>2012-06-10T12:05:47Z</time>
      </trkpt>
      <trkpt lat="42.71526" lon="1.55615">
        <ele>1425.2917480469</ele>
        <time>2012-06-10T12:05:52Z</time>
      </trkpt>
      <trkpt lat="42.71532" lon="1.55618">
        <ele>1428.17578125</ele>
        <time>2012-06-10T12:05:56Z</time>
      </trkpt>
      <trkpt lat="42.71537" lon="1.55618">
        <ele>1422.4079589844</ele>
        <time>2012-06-10T12:06:01Z</time>
      </trkpt>
      <trkpt lat="42.71539" lon="1.55616">
        <ele>1420.9660644531</ele>
        <time>2012-06-10T12:06:05Z</time>
      </trkpt>
      <trkpt lat="42.71558" lon="1.55628">
        <ele>1409.9106445312</ele>
        <time>2012-06-10T12:06:28Z</time>
      </trkpt>
      <trkpt lat="42.71566" lon="1.55629">
        <ele>1394.5295410156</ele>
        <time>2012-06-10T12:06:39Z</time>
      </trkpt>
      <trkpt lat="42.71574" lon="1.55632">
        <ele>1395.0102539062</ele>
        <time>2012-06-10T12:06:44Z</time>
      </trkpt>
      <trkpt lat="42.71575" lon="1.55624">
        <ele>1396.9328613281</ele>
        <time>2012-06-10T12:06:48Z</time>
      </trkpt>
      <trkpt lat="42.71577" lon="1.55615">
        <ele>1398.85546875</ele>
        <time>2012-06-10T12:06:55Z</time>
      </trkpt>
      <trkpt lat="42.71577" lon="1.55606">
        <ele>1397.8942871094</ele>
        <time>2012-06-10T12:07:00Z</time>
      </trkpt>
      <trkpt lat="42.71578" lon="1.55605">
        <ele>1397.4135742188</ele>
        <time>2012-06-10T12:07:01Z</time>
      </trkpt>
      <trkpt lat="42.71577" lon="1.55596">
        <ele>1394.0490722656</ele>
        <time>2012-06-10T12:07:07Z</time>
      </trkpt>
      <trkpt lat="42.71579" lon="1.55588">
        <ele>1392.1264648438</ele>
        <time>2012-06-10T12:07:12Z</time>
      </trkpt>
      <trkpt lat="42.71586" lon="1.55581">
        <ele>1391.1650390625</ele>
        <time>2012-06-10T12:07:19Z</time>
      </trkpt>
      <trkpt lat="42.71592" lon="1.55573">
        <ele>1390.2038574219</ele>
        <time>2012-06-10T12:07:25Z</time>
      </trkpt>
      <trkpt lat="42.71598" lon="1.55569">
        <ele>1392.1264648438</ele>
        <time>2012-06-10T12:07:32Z</time>
      </trkpt>
      <trkpt lat="42.71602" lon="1.55567">
        <ele>1392.1264648438</ele>
        <time>2012-06-10T12:07:38Z</time>
      </trkpt>
      <trkpt lat="42.71606" lon="1.55562">
        <ele>1385.8776855469</ele>
        <time>2012-06-10T12:07:48Z</time>
      </trkpt>
      <trkpt lat="42.71607" lon="1.55558">
        <ele>1383.4743652344</ele>
        <time>2012-06-10T12:07:52Z</time>
      </trkpt>
      <trkpt lat="42.71608" lon="1.55552">
        <ele>1380.5905761719</ele>
        <time>2012-06-10T12:07:58Z</time>
      </trkpt>
      <trkpt lat="42.71609" lon="1.55545">
        <ele>1377.7065429688</ele>
        <time>2012-06-10T12:08:05Z</time>
      </trkpt>
      <trkpt lat="42.7161" lon="1.5554">
        <ele>1375.7839355469</ele>
        <time>2012-06-10T12:08:10Z</time>
      </trkpt>
      <trkpt lat="42.71611" lon="1.55536">
        <ele>1374.3420410156</ele>
        <time>2012-06-10T12:08:14Z</time>
      </trkpt>
      <trkpt lat="42.71612" lon="1.5553">
        <ele>1372.9001464844</ele>
        <time>2012-06-10T12:08:20Z</time>
      </trkpt>
      <trkpt lat="42.71613" lon="1.55524">
        <ele>1371.4577636719</ele>
        <time>2012-06-10T12:08:25Z</time>
      </trkpt>
      <trkpt lat="42.71614" lon="1.55519">
        <ele>1369.5354003906</ele>
        <time>2012-06-10T12:08:30Z</time>
      </trkpt>
      <trkpt lat="42.71615" lon="1.55513">
        <ele>1367.6125488281</ele>
        <time>2012-06-10T12:08:36Z</time>
      </trkpt>
      <trkpt lat="42.71616" lon="1.55509">
        <ele>1366.6513671875</ele>
        <time>2012-06-10T12:08:41Z</time>
      </trkpt>
      <trkpt lat="42.71616" lon="1.55508">
        <ele>1364.7287597656</ele>
        <time>2012-06-10T12:08:46Z</time>
      </trkpt>
      <trkpt lat="42.71619" lon="1.55506">
        <ele>1363.2868652344</ele>
        <time>2012-06-10T12:08:51Z</time>
      </trkpt>
      <trkpt lat="42.7162" lon="1.55511">
        <ele>1362.3254394531</ele>
        <time>2012-06-10T12:08:59Z</time>
      </trkpt>
      <trkpt lat="42.7162" lon="1.55515">
        <ele>1361.3642578125</ele>
        <time>2012-06-10T12:09:06Z</time>
      </trkpt>
      <trkpt lat="42.71622" lon="1.55518">
        <ele>1362.3254394531</ele>
        <time>2012-06-10T12:09:14Z</time>
      </trkpt>
      <trkpt lat="42.71623" lon="1.55521">
        <ele>1364.248046875</ele>
        <time>2012-06-10T12:09:20Z</time>
      </trkpt>
      <trkpt lat="42.71626" lon="1.55524">
        <ele>1362.3254394531</ele>
        <time>2012-06-10T12:09:38Z</time>
      </trkpt>
      <trkpt lat="42.71623" lon="1.55513">
        <ele>1362.3254394531</ele>
        <time>2012-06-10T12:09:43Z</time>
      </trkpt>
      <trkpt lat="42.71624" lon="1.55503">
        <ele>1362.8061523438</ele>
        <time>2012-06-10T12:09:49Z</time>
      </trkpt>
      <trkpt lat="42.71624" lon="1.55493">
        <ele>1368.0932617188</ele>
        <time>2012-06-10T12:09:53Z</time>
      </trkpt>
      <trkpt lat="42.71622" lon="1.55487">
        <ele>1370.0158691406</ele>
        <time>2012-06-10T12:09:58Z</time>
      </trkpt>
      <trkpt lat="42.71621" lon="1.55485">
        <ele>1369.5354003906</ele>
        <time>2012-06-10T12:10:00Z</time>
      </trkpt>
      <trkpt lat="42.71622" lon="1.55474">
        <ele>1367.6125488281</ele>
        <time>2012-06-10T12:10:08Z</time>
      </trkpt>
      <trkpt lat="42.71623" lon="1.55469">
        <ele>1368.0932617188</ele>
        <time>2012-06-10T12:10:14Z</time>
      </trkpt>
      <trkpt lat="42.71627" lon="1.55466">
        <ele>1368.5739746094</ele>
        <time>2012-06-10T12:10:20Z</time>
      </trkpt>
      <trkpt lat="42.71638" lon="1.55464">
        <ele>1358.9609375</ele>
        <time>2012-06-10T12:10:52Z</time>
      </trkpt>
      <trkpt lat="42.71637" lon="1.55473">
        <ele>1350.3090820312</ele>
        <time>2012-06-10T12:10:59Z</time>
      </trkpt>
      <trkpt lat="42.71635" lon="1.55477">
        <ele>1353.1928710938</ele>
        <time>2012-06-10T12:11:04Z</time>
      </trkpt>
      <trkpt lat="42.71636" lon="1.5548">
        <ele>1357.9997558594</ele>
        <time>2012-06-10T12:11:08Z</time>
      </trkpt>
      <trkpt lat="42.71635" lon="1.55479">
        <ele>1358.4802246094</ele>
        <time>2012-06-10T12:11:12Z</time>
      </trkpt>
      <trkpt lat="42.71639" lon="1.55484">
        <ele>1380.5905761719</ele>
        <time>2012-06-10T12:11:18Z</time>
      </trkpt>
      <trkpt lat="42.71653" lon="1.55467">
        <ele>1345.9831542969</ele>
        <time>2012-06-10T12:12:55Z</time>
      </trkpt>
      <trkpt lat="42.71655" lon="1.55448">
        <ele>1365.6901855469</ele>
        <time>2012-06-10T12:13:10Z</time>
      </trkpt>
      <trkpt lat="42.71656" lon="1.55443">
        <ele>1365.2094726562</ele>
        <time>2012-06-10T12:13:19Z</time>
      </trkpt>
      <trkpt lat="42.71657" lon="1.55437">
        <ele>1359.9221191406</ele>
        <time>2012-06-10T12:13:27Z</time>
      </trkpt>
      <trkpt lat="42.71657" lon="1.55435">
        <ele>1360.8835449219</ele>
        <time>2012-06-10T12:13:28Z</time>
      </trkpt>
      <trkpt lat="42.71659" lon="1.55429">
        <ele>1363.2868652344</ele>
        <time>2012-06-10T12:13:32Z</time>
      </trkpt>
      <trkpt lat="42.71661" lon="1.55425">
        <ele>1363.2868652344</ele>
        <time>2012-06-10T12:13:36Z</time>
      </trkpt>
      <trkpt lat="42.71663" lon="1.55423">
        <ele>1343.0991210938</ele>
        <time>2012-06-10T12:13:43Z</time>
      </trkpt>
      <trkpt lat="42.71665" lon="1.55422">
        <ele>1330.6020507812</ele>
        <time>2012-06-10T12:13:48Z</time>
      </trkpt>
      <trkpt lat="42.71672" lon="1.55416">
        <ele>1314.2595214844</ele>
        <time>2012-06-10T12:13:59Z</time>
      </trkpt>
      <trkpt lat="42.71676" lon="1.55413">
        <ele>1310.4143066406</ele>
        <time>2012-06-10T12:14:04Z</time>
      </trkpt>
      <trkpt lat="42.7168" lon="1.5541">
        <ele>1308.4916992188</ele>
        <time>2012-06-10T12:14:08Z</time>
      </trkpt>
      <trkpt lat="42.71684" lon="1.55407">
        <ele>1308.4916992188</ele>
        <time>2012-06-10T12:14:14Z</time>
      </trkpt>
      <trkpt lat="42.71688" lon="1.55403">
        <ele>1307.5302734375</ele>
        <time>2012-06-10T12:14:20Z</time>
      </trkpt>
      <trkpt lat="42.71692" lon="1.55401">
        <ele>1307.0495605469</ele>
        <time>2012-06-10T12:14:25Z</time>
      </trkpt>
      <trkpt lat="42.71696" lon="1.55399">
        <ele>1306.0881347656</ele>
        <time>2012-06-10T12:14:30Z</time>
      </trkpt>
      <trkpt lat="42.717" lon="1.55397">
        <ele>1304.6462402344</ele>
        <time>2012-06-10T12:14:34Z</time>
      </trkpt>
      <trkpt lat="42.71706" lon="1.55396">
        <ele>1306.0881347656</ele>
        <time>2012-06-10T12:14:41Z</time>
      </trkpt>
      <trkpt lat="42.71709" lon="1.55402">
        <ele>1305.6076660156</ele>
        <time>2012-06-10T12:14:46Z</time>
      </trkpt>
      <trkpt lat="42.71711" lon="1.55413">
        <ele>1309.453125</ele>
        <time>2012-06-10T12:14:56Z</time>
      </trkpt>
      <trkpt lat="42.71714" lon="1.55413">
        <ele>1314.740234375</ele>
        <time>2012-06-10T12:15:00Z</time>
      </trkpt>
      <trkpt lat="42.71719" lon="1.55412">
        <ele>1326.2761230469</ele>
        <time>2012-06-10T12:15:05Z</time>
      </trkpt>
      <trkpt lat="42.71722" lon="1.55413">
        <ele>1330.1213378906</ele>
        <time>2012-06-10T12:15:07Z</time>
      </trkpt>
      <trkpt lat="42.71732" lon="1.55415">
        <ele>1334.447265625</ele>
        <time>2012-06-10T12:15:16Z</time>
      </trkpt>
      <trkpt lat="42.71736" lon="1.55416">
        <ele>1339.734375</ele>
        <time>2012-06-10T12:15:21Z</time>
      </trkpt>
      <trkpt lat="42.7174" lon="1.55416">
        <ele>1348.8669433594</ele>
        <time>2012-06-10T12:15:27Z</time>
      </trkpt>
      <trkpt lat="42.71745" lon="1.55414">
        <ele>1366.6513671875</ele>
        <time>2012-06-10T12:15:32Z</time>
      </trkpt>
      <trkpt lat="42.71751" lon="1.55413">
        <ele>1383.955078125</ele>
        <time>2012-06-10T12:15:39Z</time>
      </trkpt>
      <trkpt lat="42.71755" lon="1.55411">
        <ele>1393.568359375</ele>
        <time>2012-06-10T12:15:43Z</time>
      </trkpt>
      <trkpt lat="42.71759" lon="1.5541">
        <ele>1408.46875</ele>
        <time>2012-06-10T12:15:48Z</time>
      </trkpt>
      <trkpt lat="42.71762" lon="1.55409">
        <ele>1419.5239257812</ele>
        <time>2012-06-10T12:15:52Z</time>
      </trkpt>
      <trkpt lat="42.71768" lon="1.5541">
        <ele>1433.9436035156</ele>
        <time>2012-06-10T12:15:57Z</time>
      </trkpt>
      <trkpt lat="42.71775" lon="1.55409">
        <ele>1454.1315917969</ele>
        <time>2012-06-10T12:16:03Z</time>
      </trkpt>
      <trkpt lat="42.71782" lon="1.55409">
        <ele>1478.6450195312</ele>
        <time>2012-06-10T12:16:09Z</time>
      </trkpt>
      <trkpt lat="42.71787" lon="1.55408">
        <ele>1497.8713378906</ele>
        <time>2012-06-10T12:16:13Z</time>
      </trkpt>
      <trkpt lat="42.71794" lon="1.55398">
        <ele>1545.9372558594</ele>
        <time>2012-06-10T12:16:18Z</time>
      </trkpt>
      <trkpt lat="42.71798" lon="1.55394">
        <ele>1568.5283203125</ele>
        <time>2012-06-10T12:16:22Z</time>
      </trkpt>
      <trkpt lat="42.718" lon="1.55392">
        <ele>1576.6994628906</ele>
        <time>2012-06-10T12:16:26Z</time>
      </trkpt>
      <trkpt lat="42.71802" lon="1.55392">
        <ele>1585.83203125</ele>
        <time>2012-06-10T12:16:32Z</time>
      </trkpt>
      <trkpt lat="42.71807" lon="1.55396">
        <ele>1587.2739257812</ele>
        <time>2012-06-10T12:16:38Z</time>
      </trkpt>
      <trkpt lat="42.71811" lon="1.55399">
        <ele>1585.83203125</ele>
        <time>2012-06-10T12:16:42Z</time>
      </trkpt>
      <trkpt lat="42.71817" lon="1.55408">
        <ele>1570.4509277344</ele>
        <time>2012-06-10T12:16:50Z</time>
      </trkpt>
      <trkpt lat="42.7182" lon="1.55415">
        <ele>1552.6665039062</ele>
        <time>2012-06-10T12:16:54Z</time>
      </trkpt>
      <trkpt lat="42.71829" lon="1.55421">
        <ele>1546.8984375</ele>
        <time>2012-06-10T12:17:00Z</time>
      </trkpt>
      <trkpt lat="42.71835" lon="1.5542">
        <ele>1541.611328125</ele>
        <time>2012-06-10T12:17:05Z</time>
      </trkpt>
      <trkpt lat="42.71838" lon="1.55415">
        <ele>1535.8435058594</ele>
        <time>2012-06-10T12:17:10Z</time>
      </trkpt>
      <trkpt lat="42.71843" lon="1.55412">
        <ele>1531.0368652344</ele>
        <time>2012-06-10T12:17:15Z</time>
      </trkpt>
      <trkpt lat="42.7185" lon="1.5541">
        <ele>1524.7883300781</ele>
        <time>2012-06-10T12:17:20Z</time>
      </trkpt>
      <trkpt lat="42.71854" lon="1.55406">
        <ele>1517.0979003906</ele>
        <time>2012-06-10T12:17:24Z</time>
      </trkpt>
      <trkpt lat="42.71861" lon="1.55406">
        <ele>1508.9265136719</ele>
        <time>2012-06-10T12:17:29Z</time>
      </trkpt>
      <trkpt lat="42.71864" lon="1.55407">
        <ele>1502.6779785156</ele>
        <time>2012-06-10T12:17:33Z</time>
      </trkpt>
      <trkpt lat="42.71868" lon="1.55408">
        <ele>1494.9873046875</ele>
        <time>2012-06-10T12:17:38Z</time>
      </trkpt>
      <trkpt lat="42.71867" lon="1.55398">
        <ele>1480.0869140625</ele>
        <time>2012-06-10T12:17:43Z</time>
      </trkpt>
      <trkpt lat="42.71868" lon="1.55393">
        <ele>1469.9931640625</ele>
        <time>2012-06-10T12:17:45Z</time>
      </trkpt>
      <trkpt lat="42.71875" lon="1.55385">
        <ele>1455.5734863281</ele>
        <time>2012-06-10T12:17:51Z</time>
      </trkpt>
      <trkpt lat="42.71878" lon="1.55383">
        <ele>1449.8054199219</ele>
        <time>2012-06-10T12:17:56Z</time>
      </trkpt>
      <trkpt lat="42.71885" lon="1.55384">
        <ele>1439.7116699219</ele>
        <time>2012-06-10T12:18:02Z</time>
      </trkpt>
      <trkpt lat="42.71889" lon="1.55389">
        <ele>1428.6564941406</ele>
        <time>2012-06-10T12:18:06Z</time>
      </trkpt>
      <trkpt lat="42.71892" lon="1.5539">
        <ele>1422.888671875</ele>
        <time>2012-06-10T12:18:09Z</time>
      </trkpt>
      <trkpt lat="42.71893" lon="1.5539">
        <ele>1418.5625</ele>
        <time>2012-06-10T12:18:11Z</time>
      </trkpt>
      <trkpt lat="42.71898" lon="1.55391">
        <ele>1412.7946777344</ele>
        <time>2012-06-10T12:18:15Z</time>
      </trkpt>
      <trkpt lat="42.71905" lon="1.55392">
        <ele>1407.98828125</ele>
        <time>2012-06-10T12:18:21Z</time>
      </trkpt>
      <trkpt lat="42.71906" lon="1.55387">
        <ele>1405.5849609375</ele>
        <time>2012-06-10T12:18:26Z</time>
      </trkpt>
      <trkpt lat="42.71898" lon="1.55386">
        <ele>1397.4135742188</ele>
        <time>2012-06-10T12:18:32Z</time>
      </trkpt>
      <trkpt lat="42.71895" lon="1.55387">
        <ele>1391.6457519531</ele>
        <time>2012-06-10T12:18:38Z</time>
      </trkpt>
      <trkpt lat="42.71894" lon="1.55389">
        <ele>1391.1650390625</ele>
        <time>2012-06-10T12:18:39Z</time>
      </trkpt>
      <trkpt lat="42.7189" lon="1.55392">
        <ele>1385.3969726562</ele>
        <time>2012-06-10T12:18:44Z</time>
      </trkpt>
      <trkpt lat="42.71887" lon="1.55391">
        <ele>1377.7065429688</ele>
        <time>2012-06-10T12:18:49Z</time>
      </trkpt>
      <trkpt lat="42.71893" lon="1.55393">
        <ele>1366.1706542969</ele>
        <time>2012-06-10T12:18:57Z</time>
      </trkpt>
      <trkpt lat="42.71898" lon="1.55398">
        <ele>1365.2094726562</ele>
        <time>2012-06-10T12:19:02Z</time>
      </trkpt>
      <trkpt lat="42.71903" lon="1.55403">
        <ele>1362.3254394531</ele>
        <time>2012-06-10T12:19:07Z</time>
      </trkpt>
      <trkpt lat="42.71905" lon="1.55406">
        <ele>1362.3254394531</ele>
        <time>2012-06-10T12:19:09Z</time>
      </trkpt>
      <trkpt lat="42.71908" lon="1.55409">
        <ele>1358.9609375</ele>
        <time>2012-06-10T12:19:14Z</time>
      </trkpt>
      <trkpt lat="42.7191" lon="1.55409">
        <ele>1357.0383300781</ele>
        <time>2012-06-10T12:19:17Z</time>
      </trkpt>
      <trkpt lat="42.71914" lon="1.55409">
        <ele>1351.7509765625</ele>
        <time>2012-06-10T12:19:22Z</time>
      </trkpt>
      <trkpt lat="42.71923" lon="1.55402">
        <ele>1345.0217285156</ele>
        <time>2012-06-10T12:19:30Z</time>
      </trkpt>
      <trkpt lat="42.7193" lon="1.55402">
        <ele>1342.6186523438</ele>
        <time>2012-06-10T12:19:35Z</time>
      </trkpt>
      <trkpt lat="42.71935" lon="1.55405">
        <ele>1337.3310546875</ele>
        <time>2012-06-10T12:19:40Z</time>
      </trkpt>
      <trkpt lat="42.71938" lon="1.55405">
        <ele>1333.9665527344</ele>
        <time>2012-06-10T12:19:43Z</time>
      </trkpt>
      <trkpt lat="42.71944" lon="1.55406">
        <ele>1327.7180175781</ele>
        <time>2012-06-10T12:19:47Z</time>
      </trkpt>
      <trkpt lat="42.71952" lon="1.5541">
        <ele>1320.9887695312</ele>
        <time>2012-06-10T12:19:54Z</time>
      </trkpt>
      <trkpt lat="42.71956" lon="1.55413">
        <ele>1316.1821289062</ele>
        <time>2012-06-10T12:19:58Z</time>
      </trkpt>
      <trkpt lat="42.7196" lon="1.55414">
        <ele>1311.8564453125</ele>
        <time>2012-06-10T12:20:02Z</time>
      </trkpt>
      <trkpt lat="42.71967" lon="1.55417">
        <ele>1303.6850585938</ele>
        <time>2012-06-10T12:20:09Z</time>
      </trkpt>
      <trkpt lat="42.71972" lon="1.55419">
        <ele>1297.4365234375</ele>
        <time>2012-06-10T12:20:14Z</time>
      </trkpt>
      <trkpt lat="42.71977" lon="1.55418">
        <ele>1290.70703125</ele>
        <time>2012-06-10T12:20:19Z</time>
      </trkpt>
      <trkpt lat="42.71984" lon="1.55417">
        <ele>1283.9780273438</ele>
        <time>2012-06-10T12:20:26Z</time>
      </trkpt>
      <trkpt lat="42.71992" lon="1.55416">
        <ele>1275.806640625</ele>
        <time>2012-06-10T12:20:33Z</time>
      </trkpt>
      <trkpt lat="42.71998" lon="1.55418">
        <ele>1271.0002441406</ele>
        <time>2012-06-10T12:20:38Z</time>
      </trkpt>
      <trkpt lat="42.72002" lon="1.55419">
        <ele>1269.0776367188</ele>
        <time>2012-06-10T12:20:43Z</time>
      </trkpt>
      <trkpt lat="42.72003" lon="1.55419">
        <ele>1268.1162109375</ele>
        <time>2012-06-10T12:20:44Z</time>
      </trkpt>
      <trkpt lat="42.72011" lon="1.55422">
        <ele>1262.3483886719</ele>
        <time>2012-06-10T12:20:52Z</time>
      </trkpt>
      <trkpt lat="42.72018" lon="1.55423">
        <ele>1257.5417480469</ele>
        <time>2012-06-10T12:20:59Z</time>
      </trkpt>
      <trkpt lat="42.72021" lon="1.55424">
        <ele>1255.1384277344</ele>
        <time>2012-06-10T12:21:03Z</time>
      </trkpt>
      <trkpt lat="42.72025" lon="1.55423">
        <ele>1252.7351074219</ele>
        <time>2012-06-10T12:21:09Z</time>
      </trkpt>
      <trkpt lat="42.72029" lon="1.55423">
        <ele>1253.2158203125</ele>
        <time>2012-06-10T12:21:13Z</time>
      </trkpt>
      <trkpt lat="42.72033" lon="1.55423">
        <ele>1252.7351074219</ele>
        <time>2012-06-10T12:21:18Z</time>
      </trkpt>
      <trkpt lat="42.72036" lon="1.5542">
        <ele>1251.2932128906</ele>
        <time>2012-06-10T12:21:21Z</time>
      </trkpt>
      <trkpt lat="42.72039" lon="1.55413">
        <ele>1249.3706054688</ele>
        <time>2012-06-10T12:21:26Z</time>
      </trkpt>
      <trkpt lat="42.72043" lon="1.55413">
        <ele>1247.9287109375</ele>
        <time>2012-06-10T12:21:32Z</time>
      </trkpt>
      <trkpt lat="42.72048" lon="1.55413">
        <ele>1244.0834960938</ele>
        <time>2012-06-10T12:21:38Z</time>
      </trkpt>
      <trkpt lat="42.72051" lon="1.55412">
        <ele>1244.0834960938</ele>
        <time>2012-06-10T12:21:42Z</time>
      </trkpt>
      <trkpt lat="42.72055" lon="1.55411">
        <ele>1243.1218261719</ele>
        <time>2012-06-10T12:21:47Z</time>
      </trkpt>
      <trkpt lat="42.7206" lon="1.5541">
        <ele>1241.19921875</ele>
        <time>2012-06-10T12:21:51Z</time>
      </trkpt>
      <trkpt lat="42.72063" lon="1.55409">
        <ele>1238.7961425781</ele>
        <time>2012-06-10T12:21:54Z</time>
      </trkpt>
      <trkpt lat="42.72066" lon="1.55408">
        <ele>1237.3540039062</ele>
        <time>2012-06-10T12:21:57Z</time>
      </trkpt>
      <trkpt lat="42.72072" lon="1.55409">
        <ele>1237.8347167969</ele>
        <time>2012-06-10T12:22:04Z</time>
      </trkpt>
      <trkpt lat="42.72075" lon="1.55408">
        <ele>1236.8732910156</ele>
        <time>2012-06-10T12:22:08Z</time>
      </trkpt>
      <trkpt lat="42.72081" lon="1.55408">
        <ele>1236.3928222656</ele>
        <time>2012-06-10T12:22:15Z</time>
      </trkpt>
      <trkpt lat="42.72084" lon="1.55407">
        <ele>1236.3928222656</ele>
        <time>2012-06-10T12:22:18Z</time>
      </trkpt>
      <trkpt lat="42.72088" lon="1.55405">
        <ele>1234.9509277344</ele>
        <time>2012-06-10T12:22:21Z</time>
      </trkpt>
      <trkpt lat="42.72093" lon="1.55403">
        <ele>1231.1057128906</ele>
        <time>2012-06-10T12:22:27Z</time>
      </trkpt>
      <trkpt lat="42.72098" lon="1.55402">
        <ele>1229.6635742188</ele>
        <time>2012-06-10T12:22:32Z</time>
      </trkpt>
      <trkpt lat="42.72102" lon="1.554">
        <ele>1227.2602539062</ele>
        <time>2012-06-10T12:22:37Z</time>
      </trkpt>
      <trkpt lat="42.72108" lon="1.55398">
        <ele>1225.3374023438</ele>
        <time>2012-06-10T12:22:43Z</time>
      </trkpt>
      <trkpt lat="42.72114" lon="1.55397">
        <ele>1222.4536132812</ele>
        <time>2012-06-10T12:22:49Z</time>
      </trkpt>
      <trkpt lat="42.72118" lon="1.55395">
        <ele>1220.5310058594</ele>
        <time>2012-06-10T12:22:53Z</time>
      </trkpt>
      <trkpt lat="42.72122" lon="1.55394">
        <ele>1218.1276855469</ele>
        <time>2012-06-10T12:22:58Z</time>
      </trkpt>
      <trkpt lat="42.72125" lon="1.55392">
        <ele>1216.205078125</ele>
        <time>2012-06-10T12:23:01Z</time>
      </trkpt>
      <trkpt lat="42.72131" lon="1.55389">
        <ele>1214.2824707031</ele>
        <time>2012-06-10T12:23:07Z</time>
      </trkpt>
      <trkpt lat="42.72135" lon="1.55388">
        <ele>1213.3212890625</ele>
        <time>2012-06-10T12:23:11Z</time>
      </trkpt>
      <trkpt lat="42.72138" lon="1.55384">
        <ele>1212.3598632812</ele>
        <time>2012-06-10T12:23:15Z</time>
      </trkpt>
      <trkpt lat="42.72141" lon="1.55381">
        <ele>1210.9177246094</ele>
        <time>2012-06-10T12:23:20Z</time>
      </trkpt>
      <trkpt lat="42.72143" lon="1.55379">
        <ele>1209.9562988281</ele>
        <time>2012-06-10T12:23:22Z</time>
      </trkpt>
      <trkpt lat="42.72148" lon="1.55374">
        <ele>1208.5144042969</ele>
        <time>2012-06-10T12:23:27Z</time>
      </trkpt>
      <trkpt lat="42.72152" lon="1.55363">
        <ele>1204.1887207031</ele>
        <time>2012-06-10T12:23:35Z</time>
      </trkpt>
      <trkpt lat="42.72155" lon="1.55359">
        <ele>1199.8627929688</ele>
        <time>2012-06-10T12:23:41Z</time>
      </trkpt>
      <trkpt lat="42.72159" lon="1.55357">
        <ele>1196.017578125</ele>
        <time>2012-06-10T12:23:46Z</time>
      </trkpt>
      <trkpt lat="42.72162" lon="1.5536">
        <ele>1193.1333007812</ele>
        <time>2012-06-10T12:23:52Z</time>
      </trkpt>
      <trkpt lat="42.72164" lon="1.55362">
        <ele>1189.7687988281</ele>
        <time>2012-06-10T12:23:59Z</time>
      </trkpt>
      <trkpt lat="42.72166" lon="1.55361">
        <ele>1186.884765625</ele>
        <time>2012-06-10T12:24:05Z</time>
      </trkpt>
      <trkpt lat="42.72169" lon="1.55358">
        <ele>1184.4816894531</ele>
        <time>2012-06-10T12:24:11Z</time>
      </trkpt>
      <trkpt lat="42.72171" lon="1.55356">
        <ele>1184.0009765625</ele>
        <time>2012-06-10T12:24:16Z</time>
      </trkpt>
      <trkpt lat="42.72174" lon="1.55354">
        <ele>1183.5202636719</ele>
        <time>2012-06-10T12:24:22Z</time>
      </trkpt>
      <trkpt lat="42.72171" lon="1.55348">
        <ele>1187.3654785156</ele>
        <time>2012-06-10T12:24:28Z</time>
      </trkpt>
      <trkpt lat="42.72171" lon="1.55347">
        <ele>1183.5202636719</ele>
        <time>2012-06-10T12:24:36Z</time>
      </trkpt>
      <trkpt lat="42.72171" lon="1.55345">
        <ele>1180.6364746094</ele>
        <time>2012-06-10T12:24:41Z</time>
      </trkpt>
      <trkpt lat="42.72173" lon="1.55345">
        <ele>1177.7521972656</ele>
        <time>2012-06-10T12:24:48Z</time>
      </trkpt>
      <trkpt lat="42.72177" lon="1.55342">
        <ele>1174.3876953125</ele>
        <time>2012-06-10T12:24:55Z</time>
      </trkpt>
      <trkpt lat="42.72184" lon="1.55341">
        <ele>1170.5424804688</ele>
        <time>2012-06-10T12:25:04Z</time>
      </trkpt>
      <trkpt lat="42.72186" lon="1.55339">
        <ele>1172.4650878906</ele>
        <time>2012-06-10T12:25:08Z</time>
      </trkpt>
      <trkpt lat="42.7219" lon="1.55335">
        <ele>1172.9458007812</ele>
        <time>2012-06-10T12:25:13Z</time>
      </trkpt>
      <trkpt lat="42.72188" lon="1.55332">
        <ele>1171.0231933594</ele>
        <time>2012-06-10T12:25:18Z</time>
      </trkpt>
      <trkpt lat="42.72189" lon="1.55328">
        <ele>1168.6198730469</ele>
        <time>2012-06-10T12:25:25Z</time>
      </trkpt>
      <trkpt lat="42.72189" lon="1.55324">
        <ele>1167.6584472656</ele>
        <time>2012-06-10T12:25:32Z</time>
      </trkpt>
      <trkpt lat="42.72195" lon="1.55304">
        <ele>1179.1940917969</ele>
        <time>2012-06-10T12:25:51Z</time>
      </trkpt>
      <trkpt lat="42.72202" lon="1.55298">
        <ele>1176.791015625</ele>
        <time>2012-06-10T12:26:08Z</time>
      </trkpt>
      <trkpt lat="42.72205" lon="1.55281">
        <ele>1188.8076171875</ele>
        <time>2012-06-10T12:26:22Z</time>
      </trkpt>
      <trkpt lat="42.72209" lon="1.55278">
        <ele>1184.0009765625</ele>
        <time>2012-06-10T12:26:28Z</time>
      </trkpt>
      <trkpt lat="42.72213" lon="1.55275">
        <ele>1182.0783691406</ele>
        <time>2012-06-10T12:26:34Z</time>
      </trkpt>
      <trkpt lat="42.72215" lon="1.55267">
        <ele>1179.6748046875</ele>
        <time>2012-06-10T12:26:46Z</time>
      </trkpt>
      <trkpt lat="42.72222" lon="1.55261">
        <ele>1173.4265136719</ele>
        <time>2012-06-10T12:27:01Z</time>
      </trkpt>
      <trkpt lat="42.72232" lon="1.55255">
        <ele>1161.890625</ele>
        <time>2012-06-10T12:27:21Z</time>
      </trkpt>
      <trkpt lat="42.72234" lon="1.5525">
        <ele>1167.1779785156</ele>
        <time>2012-06-10T12:27:25Z</time>
      </trkpt>
      <trkpt lat="42.72239" lon="1.55245">
        <ele>1165.7360839844</ele>
        <time>2012-06-10T12:27:31Z</time>
      </trkpt>
      <trkpt lat="42.72242" lon="1.55241">
        <ele>1164.2939453125</ele>
        <time>2012-06-10T12:27:37Z</time>
      </trkpt>
      <trkpt lat="42.72247" lon="1.55237">
        <ele>1162.8518066406</ele>
        <time>2012-06-10T12:27:43Z</time>
      </trkpt>
      <trkpt lat="42.7225" lon="1.55234">
        <ele>1161.4099121094</ele>
        <time>2012-06-10T12:27:50Z</time>
      </trkpt>
      <trkpt lat="42.72256" lon="1.5523">
        <ele>1159.4873046875</ele>
        <time>2012-06-10T12:27:56Z</time>
      </trkpt>
      <trkpt lat="42.72261" lon="1.55218">
        <ele>1172.4650878906</ele>
        <time>2012-06-10T12:28:06Z</time>
      </trkpt>
      <trkpt lat="42.72264" lon="1.55214">
        <ele>1171.984375</ele>
        <time>2012-06-10T12:28:12Z</time>
      </trkpt>
      <trkpt lat="42.72271" lon="1.55214">
        <ele>1168.1391601562</ele>
        <time>2012-06-10T12:28:18Z</time>
      </trkpt>
      <trkpt lat="42.72272" lon="1.55212">
        <ele>1166.697265625</ele>
        <time>2012-06-10T12:28:21Z</time>
      </trkpt>
      <trkpt lat="42.72276" lon="1.55209">
        <ele>1164.7746582031</ele>
        <time>2012-06-10T12:28:26Z</time>
      </trkpt>
      <trkpt lat="42.72279" lon="1.55207">
        <ele>1161.4099121094</ele>
        <time>2012-06-10T12:28:31Z</time>
      </trkpt>
      <trkpt lat="42.72284" lon="1.55205">
        <ele>1158.0454101562</ele>
        <time>2012-06-10T12:28:37Z</time>
      </trkpt>
      <trkpt lat="42.7229" lon="1.55196">
        <ele>1163.3325195312</ele>
        <time>2012-06-10T12:28:44Z</time>
      </trkpt>
      <trkpt lat="42.72295" lon="1.55194">
        <ele>1161.4099121094</ele>
        <time>2012-06-10T12:28:49Z</time>
      </trkpt>
      <trkpt lat="42.72298" lon="1.55193">
        <ele>1159.4873046875</ele>
        <time>2012-06-10T12:28:55Z</time>
      </trkpt>
      <trkpt lat="42.72303" lon="1.55196">
        <ele>1149.3935546875</ele>
        <time>2012-06-10T12:29:01Z</time>
      </trkpt>
      <trkpt lat="42.72308" lon="1.55197">
        <ele>1140.7414550781</ele>
        <time>2012-06-10T12:29:07Z</time>
      </trkpt>
      <trkpt lat="42.72313" lon="1.55193">
        <ele>1137.376953125</ele>
        <time>2012-06-10T12:29:13Z</time>
      </trkpt>
      <trkpt lat="42.72318" lon="1.55191">
        <ele>1135.4543457031</ele>
        <time>2012-06-10T12:29:19Z</time>
      </trkpt>
      <trkpt lat="42.7232" lon="1.55188">
        <ele>1134.9738769531</ele>
        <time>2012-06-10T12:29:23Z</time>
      </trkpt>
      <trkpt lat="42.72324" lon="1.55188">
        <ele>1129.2055664062</ele>
        <time>2012-06-10T12:29:28Z</time>
      </trkpt>
      <trkpt lat="42.72326" lon="1.55184">
        <ele>1128.2443847656</ele>
        <time>2012-06-10T12:29:32Z</time>
      </trkpt>
      <trkpt lat="42.72327" lon="1.55177">
        <ele>1127.763671875</ele>
        <time>2012-06-10T12:29:37Z</time>
      </trkpt>
      <trkpt lat="42.7233" lon="1.55172">
        <ele>1126.8024902344</ele>
        <time>2012-06-10T12:29:41Z</time>
      </trkpt>
      <trkpt lat="42.72338" lon="1.55165">
        <ele>1127.763671875</ele>
        <time>2012-06-10T12:29:49Z</time>
      </trkpt>
      <trkpt lat="42.72342" lon="1.55159">
        <ele>1129.6862792969</ele>
        <time>2012-06-10T12:29:53Z</time>
      </trkpt>
      <trkpt lat="42.72343" lon="1.55158">
        <ele>1129.2055664062</ele>
        <time>2012-06-10T12:29:55Z</time>
      </trkpt>
      <trkpt lat="42.72346" lon="1.55157">
        <ele>1121.9958496094</ele>
        <time>2012-06-10T12:30:01Z</time>
      </trkpt>
      <trkpt lat="42.72349" lon="1.55152">
        <ele>1117.669921875</ele>
        <time>2012-06-10T12:30:07Z</time>
      </trkpt>
      <trkpt lat="42.72352" lon="1.55143">
        <ele>1114.3051757812</ele>
        <time>2012-06-10T12:30:14Z</time>
      </trkpt>
      <trkpt lat="42.72353" lon="1.55141">
        <ele>1112.86328125</ele>
        <time>2012-06-10T12:30:16Z</time>
      </trkpt>
      <trkpt lat="42.72354" lon="1.55136">
        <ele>1111.9020996094</ele>
        <time>2012-06-10T12:30:19Z</time>
      </trkpt>
      <trkpt lat="42.72358" lon="1.55128">
        <ele>1109.9792480469</ele>
        <time>2012-06-10T12:30:26Z</time>
      </trkpt>
      <trkpt lat="42.72359" lon="1.55127">
        <ele>1110.9406738281</ele>
        <time>2012-06-10T12:30:32Z</time>
      </trkpt>
      <trkpt lat="42.72359" lon="1.55125">
        <ele>1114.3051757812</ele>
        <time>2012-06-10T12:30:54Z</time>
      </trkpt>
      <trkpt lat="42.72358" lon="1.55123">
        <ele>1109.0180664062</ele>
        <time>2012-06-10T12:31:08Z</time>
      </trkpt>
      <trkpt lat="42.72362" lon="1.55118">
        <ele>1106.6147460938</ele>
        <time>2012-06-10T12:31:13Z</time>
      </trkpt>
      <trkpt lat="42.72364" lon="1.55109">
        <ele>1104.2116699219</ele>
        <time>2012-06-10T12:31:20Z</time>
      </trkpt>
      <trkpt lat="42.72367" lon="1.55105">
        <ele>1104.6921386719</ele>
        <time>2012-06-10T12:31:24Z</time>
      </trkpt>
      <trkpt lat="42.72368" lon="1.55099">
        <ele>1106.6147460938</ele>
        <time>2012-06-10T12:31:28Z</time>
      </trkpt>
      <trkpt lat="42.72369" lon="1.55096">
        <ele>1107.0954589844</ele>
        <time>2012-06-10T12:31:31Z</time>
      </trkpt>
      <trkpt lat="42.72371" lon="1.55092">
        <ele>1107.576171875</ele>
        <time>2012-06-10T12:31:34Z</time>
      </trkpt>
      <trkpt lat="42.72375" lon="1.55083">
        <ele>1107.576171875</ele>
        <time>2012-06-10T12:31:41Z</time>
      </trkpt>
      <trkpt lat="42.7238" lon="1.55076">
        <ele>1101.8083496094</ele>
        <time>2012-06-10T12:31:48Z</time>
      </trkpt>
      <trkpt lat="42.72385" lon="1.55069">
        <ele>1097.962890625</ele>
        <time>2012-06-10T12:31:56Z</time>
      </trkpt>
      <trkpt lat="42.72385" lon="1.55066">
        <ele>1096.0402832031</ele>
        <time>2012-06-10T12:32:01Z</time>
      </trkpt>
      <trkpt lat="42.7238" lon="1.55069">
        <ele>1095.0788574219</ele>
        <time>2012-06-10T12:32:05Z</time>
      </trkpt>
      <trkpt lat="42.72377" lon="1.55073">
        <ele>1094.1176757812</ele>
        <time>2012-06-10T12:32:09Z</time>
      </trkpt>
      <trkpt lat="42.72371" lon="1.55077">
        <ele>1092.1950683594</ele>
        <time>2012-06-10T12:32:15Z</time>
      </trkpt>
      <trkpt lat="42.72368" lon="1.55081">
        <ele>1090.2724609375</ele>
        <time>2012-06-10T12:32:19Z</time>
      </trkpt>
      <trkpt lat="42.72366" lon="1.55081">
        <ele>1089.7917480469</ele>
        <time>2012-06-10T12:32:21Z</time>
      </trkpt>
      <trkpt lat="42.72367" lon="1.55076">
        <ele>1089.3110351562</ele>
        <time>2012-06-10T12:32:24Z</time>
      </trkpt>
      <trkpt lat="42.7237" lon="1.55069">
        <ele>1090.2724609375</ele>
        <time>2012-06-10T12:32:31Z</time>
      </trkpt>
      <trkpt lat="42.72374" lon="1.55064">
        <ele>1088.3498535156</ele>
        <time>2012-06-10T12:32:37Z</time>
      </trkpt>
      <trkpt lat="42.72378" lon="1.5506">
        <ele>1087.869140625</ele>
        <time>2012-06-10T12:32:43Z</time>
      </trkpt>
      <trkpt lat="42.72382" lon="1.55056">
        <ele>1086.4272460938</ele>
        <time>2012-06-10T12:32:49Z</time>
      </trkpt>
      <trkpt lat="42.72385" lon="1.55051">
        <ele>1084.9853515625</ele>
        <time>2012-06-10T12:32:55Z</time>
      </trkpt>
      <trkpt lat="42.72388" lon="1.55046">
        <ele>1085.4658203125</ele>
        <time>2012-06-10T12:33:01Z</time>
      </trkpt>
      <trkpt lat="42.72391" lon="1.55038">
        <ele>1083.54296875</ele>
        <time>2012-06-10T12:33:07Z</time>
      </trkpt>
      <trkpt lat="42.7239" lon="1.55034">
        <ele>1082.1010742188</ele>
        <time>2012-06-10T12:33:12Z</time>
      </trkpt>
      <trkpt lat="42.72393" lon="1.55022">
        <ele>1079.6977539062</ele>
        <time>2012-06-10T12:33:20Z</time>
      </trkpt>
      <trkpt lat="42.72393" lon="1.5502">
        <ele>1079.2170410156</ele>
        <time>2012-06-10T12:33:22Z</time>
      </trkpt>
      <trkpt lat="42.72393" lon="1.55016">
        <ele>1078.7365722656</ele>
        <time>2012-06-10T12:33:25Z</time>
      </trkpt>
      <trkpt lat="42.72395" lon="1.55007">
        <ele>1078.255859375</ele>
        <time>2012-06-10T12:33:31Z</time>
      </trkpt>
      <trkpt lat="42.72398" lon="1.54999">
        <ele>1075.3718261719</ele>
        <time>2012-06-10T12:33:38Z</time>
      </trkpt>
      <trkpt lat="42.72402" lon="1.54993">
        <ele>1073.4494628906</ele>
        <time>2012-06-10T12:33:44Z</time>
      </trkpt>
      <trkpt lat="42.72405" lon="1.54987">
        <ele>1072.4880371094</ele>
        <time>2012-06-10T12:33:50Z</time>
      </trkpt>
      <trkpt lat="42.72408" lon="1.54982">
        <ele>1071.0461425781</ele>
        <time>2012-06-10T12:33:57Z</time>
      </trkpt>
      <trkpt lat="42.72411" lon="1.54977">
        <ele>1070.5654296875</ele>
        <time>2012-06-10T12:34:03Z</time>
      </trkpt>
      <trkpt lat="42.72415" lon="1.54973">
        <ele>1070.0847167969</ele>
        <time>2012-06-10T12:34:09Z</time>
      </trkpt>
      <trkpt lat="42.7242" lon="1.5497">
        <ele>1068.6428222656</ele>
        <time>2012-06-10T12:34:14Z</time>
      </trkpt>
      <trkpt lat="42.72425" lon="1.54967">
        <ele>1066.2392578125</ele>
        <time>2012-06-10T12:34:21Z</time>
      </trkpt>
      <trkpt lat="42.72429" lon="1.54963">
        <ele>1064.3166503906</ele>
        <time>2012-06-10T12:34:26Z</time>
      </trkpt>
      <trkpt lat="42.72435" lon="1.5496">
        <ele>1062.8747558594</ele>
        <time>2012-06-10T12:34:32Z</time>
      </trkpt>
      <trkpt lat="42.7244" lon="1.54957">
        <ele>1060.4714355469</ele>
        <time>2012-06-10T12:34:39Z</time>
      </trkpt>
      <trkpt lat="42.72444" lon="1.54953">
        <ele>1060.4714355469</ele>
        <time>2012-06-10T12:34:45Z</time>
      </trkpt>
      <trkpt lat="42.72449" lon="1.54952">
        <ele>1059.9907226562</ele>
        <time>2012-06-10T12:34:51Z</time>
      </trkpt>
      <trkpt lat="42.72454" lon="1.54948">
        <ele>1059.5102539062</ele>
        <time>2012-06-10T12:34:57Z</time>
      </trkpt>
      <trkpt lat="42.72457" lon="1.54947">
        <ele>1058.548828125</ele>
        <time>2012-06-10T12:35:02Z</time>
      </trkpt>
      <trkpt lat="42.72459" lon="1.54945">
        <ele>1058.548828125</ele>
        <time>2012-06-10T12:35:06Z</time>
      </trkpt>
      <trkpt lat="42.72461" lon="1.54942">
        <ele>1060.4714355469</ele>
        <time>2012-06-10T12:35:12Z</time>
      </trkpt>
      <trkpt lat="42.72463" lon="1.5494">
        <ele>1058.068359375</ele>
        <time>2012-06-10T12:35:16Z</time>
      </trkpt>
      <trkpt lat="42.72467" lon="1.54938">
        <ele>1059.5102539062</ele>
        <time>2012-06-10T12:35:20Z</time>
      </trkpt>
      <trkpt lat="42.7247" lon="1.54935">
        <ele>1060.9521484375</ele>
        <time>2012-06-10T12:35:25Z</time>
      </trkpt>
      <trkpt lat="42.72474" lon="1.54932">
        <ele>1066.2392578125</ele>
        <time>2012-06-10T12:35:30Z</time>
      </trkpt>
      <trkpt lat="42.7248" lon="1.5493">
        <ele>1069.1235351562</ele>
        <time>2012-06-10T12:35:36Z</time>
      </trkpt>
      <trkpt lat="42.72487" lon="1.54929">
        <ele>1072.0073242188</ele>
        <time>2012-06-10T12:35:41Z</time>
      </trkpt>
      <trkpt lat="42.72493" lon="1.54928">
        <ele>1074.4106445312</ele>
        <time>2012-06-10T12:35:47Z</time>
      </trkpt>
      <trkpt lat="42.72496" lon="1.54925">
        <ele>1078.255859375</ele>
        <time>2012-06-10T12:35:51Z</time>
      </trkpt>
      <trkpt lat="42.72503" lon="1.54926">
        <ele>1079.2170410156</ele>
        <time>2012-06-10T12:35:56Z</time>
      </trkpt>
      <trkpt lat="42.72505" lon="1.54928">
        <ele>1078.255859375</ele>
        <time>2012-06-10T12:35:58Z</time>
      </trkpt>
      <trkpt lat="42.72508" lon="1.54936">
        <ele>1076.8139648438</ele>
        <time>2012-06-10T12:36:04Z</time>
      </trkpt>
      <trkpt lat="42.72513" lon="1.54937">
        <ele>1076.3332519531</ele>
        <time>2012-06-10T12:36:09Z</time>
      </trkpt>
      <trkpt lat="42.7252" lon="1.54936">
        <ele>1073.9299316406</ele>
        <time>2012-06-10T12:36:13Z</time>
      </trkpt>
      <trkpt lat="42.72527" lon="1.54938">
        <ele>1069.6042480469</ele>
        <time>2012-06-10T12:36:18Z</time>
      </trkpt>
      <trkpt lat="42.72531" lon="1.5494">
        <ele>1067.6811523438</ele>
        <time>2012-06-10T12:36:22Z</time>
      </trkpt>
      <trkpt lat="42.72536" lon="1.54941">
        <ele>1064.7973632812</ele>
        <time>2012-06-10T12:36:26Z</time>
      </trkpt>
      <trkpt lat="42.72537" lon="1.54941">
        <ele>1063.35546875</ele>
        <time>2012-06-10T12:36:27Z</time>
      </trkpt>
      <trkpt lat="42.72545" lon="1.54942">
        <ele>1062.3940429688</ele>
        <time>2012-06-10T12:36:33Z</time>
      </trkpt>
      <trkpt lat="42.72549" lon="1.54945">
        <ele>1059.5102539062</ele>
        <time>2012-06-10T12:36:36Z</time>
      </trkpt>
      <trkpt lat="42.72556" lon="1.54944">
        <ele>1058.548828125</ele>
        <time>2012-06-10T12:36:42Z</time>
      </trkpt>
      <trkpt lat="42.72556" lon="1.54944">
        <ele>1058.068359375</ele>
        <time>2012-06-10T12:36:43Z</time>
      </trkpt>
      <trkpt lat="42.72561" lon="1.54944">
        <ele>1055.1843261719</ele>
        <time>2012-06-10T12:36:46Z</time>
      </trkpt>
      <trkpt lat="42.72572" lon="1.54939">
        <ele>1054.2231445312</ele>
        <time>2012-06-10T12:36:53Z</time>
      </trkpt>
      <trkpt lat="42.72579" lon="1.54937">
        <ele>1052.3002929688</ele>
        <time>2012-06-10T12:36:58Z</time>
      </trkpt>
      <trkpt lat="42.72582" lon="1.54936">
        <ele>1051.3388671875</ele>
        <time>2012-06-10T12:37:01Z</time>
      </trkpt>
      <trkpt lat="42.72589" lon="1.54939">
        <ele>1049.8969726562</ele>
        <time>2012-06-10T12:37:12Z</time>
      </trkpt>
      <trkpt lat="42.72594" lon="1.5494">
        <ele>1048.935546875</ele>
        <time>2012-06-10T12:37:19Z</time>
      </trkpt>
      <trkpt lat="42.72598" lon="1.54941">
        <ele>1047.4936523438</ele>
        <time>2012-06-10T12:37:23Z</time>
      </trkpt>
      <trkpt lat="42.726" lon="1.54942">
        <ele>1046.5324707031</ele>
        <time>2012-06-10T12:37:26Z</time>
      </trkpt>
      <trkpt lat="42.72603" lon="1.54943">
        <ele>1046.0517578125</ele>
        <time>2012-06-10T12:37:30Z</time>
      </trkpt>
      <trkpt lat="42.72605" lon="1.54943">
        <ele>1045.5710449219</ele>
        <time>2012-06-10T12:37:31Z</time>
      </trkpt>
      <trkpt lat="42.72613" lon="1.54942">
        <ele>1044.1291503906</ele>
        <time>2012-06-10T12:37:36Z</time>
      </trkpt>
      <trkpt lat="42.72617" lon="1.54941">
        <ele>1044.6096191406</ele>
        <time>2012-06-10T12:37:40Z</time>
      </trkpt>
      <trkpt lat="42.72623" lon="1.54942">
        <ele>1042.6872558594</ele>
        <time>2012-06-10T12:37:46Z</time>
      </trkpt>
      <trkpt lat="42.72625" lon="1.54943">
        <ele>1042.6872558594</ele>
        <time>2012-06-10T12:37:48Z</time>
      </trkpt>
      <trkpt lat="42.72633" lon="1.5494">
        <ele>1042.2065429688</ele>
        <time>2012-06-10T12:37:54Z</time>
      </trkpt>
      <trkpt lat="42.72636" lon="1.5494">
        <ele>1041.7258300781</ele>
        <time>2012-06-10T12:37:58Z</time>
      </trkpt>
      <trkpt lat="42.72641" lon="1.54939">
        <ele>1040.7644042969</ele>
        <time>2012-06-10T12:38:04Z</time>
      </trkpt>
      <trkpt lat="42.72646" lon="1.54937">
        <ele>1038.8420410156</ele>
        <time>2012-06-10T12:38:09Z</time>
      </trkpt>
      <trkpt lat="42.72647" lon="1.54937">
        <ele>1038.361328125</ele>
        <time>2012-06-10T12:38:10Z</time>
      </trkpt>
      <trkpt lat="42.72652" lon="1.54939">
        <ele>1037.8806152344</ele>
        <time>2012-06-10T12:38:14Z</time>
      </trkpt>
      <trkpt lat="42.72656" lon="1.54941">
        <ele>1035.9577636719</ele>
        <time>2012-06-10T12:38:18Z</time>
      </trkpt>
      <trkpt lat="42.72662" lon="1.54941">
        <ele>1034.03515625</ele>
        <time>2012-06-10T12:38:23Z</time>
      </trkpt>
      <trkpt lat="42.72669" lon="1.54941">
        <ele>1033.0737304688</ele>
        <time>2012-06-10T12:38:29Z</time>
      </trkpt>
      <trkpt lat="42.72673" lon="1.54941">
        <ele>1032.1125488281</ele>
        <time>2012-06-10T12:38:33Z</time>
      </trkpt>
      <trkpt lat="42.72678" lon="1.5494">
        <ele>1032.1125488281</ele>
        <time>2012-06-10T12:38:38Z</time>
      </trkpt>
      <trkpt lat="42.7268" lon="1.54939">
        <ele>1031.6318359375</ele>
        <time>2012-06-10T12:38:40Z</time>
      </trkpt>
      <trkpt lat="42.72684" lon="1.5494">
        <ele>1032.1125488281</ele>
        <time>2012-06-10T12:38:43Z</time>
      </trkpt>
      <trkpt lat="42.7269" lon="1.54938">
        <ele>1032.1125488281</ele>
        <time>2012-06-10T12:38:49Z</time>
      </trkpt>
      <trkpt lat="42.72694" lon="1.54933">
        <ele>1030.6706542969</ele>
        <time>2012-06-10T12:38:55Z</time>
      </trkpt>
      <trkpt lat="42.72697" lon="1.54932">
        <ele>1028.2673339844</ele>
        <time>2012-06-10T12:38:59Z</time>
      </trkpt>
      <trkpt lat="42.72704" lon="1.54929">
        <ele>1026.8254394531</ele>
        <time>2012-06-10T12:39:07Z</time>
      </trkpt>
      <trkpt lat="42.7271" lon="1.54927">
        <ele>1024.9028320312</ele>
        <time>2012-06-10T12:39:12Z</time>
      </trkpt>
      <trkpt lat="42.72714" lon="1.54928">
        <ele>1022.9802246094</ele>
        <time>2012-06-10T12:39:16Z</time>
      </trkpt>
      <trkpt lat="42.72718" lon="1.54928">
        <ele>1021.0576171875</ele>
        <time>2012-06-10T12:39:20Z</time>
      </trkpt>
      <trkpt lat="42.72722" lon="1.54927">
        <ele>1019.6154785156</ele>
        <time>2012-06-10T12:39:22Z</time>
      </trkpt>
      <trkpt lat="42.72729" lon="1.54927">
        <ele>1018.1733398438</ele>
        <time>2012-06-10T12:39:27Z</time>
      </trkpt>
      <trkpt lat="42.72735" lon="1.54927">
        <ele>1017.2121582031</ele>
        <time>2012-06-10T12:39:31Z</time>
      </trkpt>
      <trkpt lat="42.72742" lon="1.54925">
        <ele>1017.2121582031</ele>
        <time>2012-06-10T12:39:35Z</time>
      </trkpt>
      <trkpt lat="42.72747" lon="1.54924">
        <ele>1017.6926269531</ele>
        <time>2012-06-10T12:39:39Z</time>
      </trkpt>
      <trkpt lat="42.72753" lon="1.54926">
        <ele>1016.2507324219</ele>
        <time>2012-06-10T12:39:43Z</time>
      </trkpt>
      <trkpt lat="42.7276" lon="1.54932">
        <ele>1013.8474121094</ele>
        <time>2012-06-10T12:39:49Z</time>
      </trkpt>
      <trkpt lat="42.72763" lon="1.54934">
        <ele>1014.328125</ele>
        <time>2012-06-10T12:39:54Z</time>
      </trkpt>
      <trkpt lat="42.7277" lon="1.5493">
        <ele>1015.7702636719</ele>
        <time>2012-06-10T12:40:00Z</time>
      </trkpt>
      <trkpt lat="42.72775" lon="1.54927">
        <ele>1021.0576171875</ele>
        <time>2012-06-10T12:40:04Z</time>
      </trkpt>
      <trkpt lat="42.7278" lon="1.5493">
        <ele>1014.328125</ele>
        <time>2012-06-10T12:40:08Z</time>
      </trkpt>
      <trkpt lat="42.72786" lon="1.54932">
        <ele>1009.041015625</ele>
        <time>2012-06-10T12:40:13Z</time>
      </trkpt>
      <trkpt lat="42.72792" lon="1.54937">
        <ele>1001.8310546875</ele>
        <time>2012-06-10T12:40:17Z</time>
      </trkpt>
      <trkpt lat="42.72796" lon="1.54938">
        <ele>996.5439453125</ele>
        <time>2012-06-10T12:40:20Z</time>
      </trkpt>
      <trkpt lat="42.72805" lon="1.54939">
        <ele>994.140625</ele>
        <time>2012-06-10T12:40:26Z</time>
      </trkpt>
      <trkpt lat="42.72812" lon="1.54934">
        <ele>994.140625</ele>
        <time>2012-06-10T12:40:32Z</time>
      </trkpt>
      <trkpt lat="42.72817" lon="1.54933">
        <ele>995.10180664062</ele>
        <time>2012-06-10T12:40:37Z</time>
      </trkpt>
      <trkpt lat="42.7282" lon="1.54933">
        <ele>996.06323242188</ele>
        <time>2012-06-10T12:40:39Z</time>
      </trkpt>
      <trkpt lat="42.72826" lon="1.54931">
        <ele>994.140625</ele>
        <time>2012-06-10T12:40:44Z</time>
      </trkpt>
      <trkpt lat="42.72831" lon="1.5493">
        <ele>991.25659179688</ele>
        <time>2012-06-10T12:40:49Z</time>
      </trkpt>
      <trkpt lat="42.72839" lon="1.54927">
        <ele>987.89184570312</ele>
        <time>2012-06-10T12:41:00Z</time>
      </trkpt>
      <trkpt lat="42.72844" lon="1.54921">
        <ele>984.52734375</ele>
        <time>2012-06-10T12:41:06Z</time>
      </trkpt>
      <trkpt lat="42.7285" lon="1.54918">
        <ele>982.60473632812</ele>
        <time>2012-06-10T12:41:12Z</time>
      </trkpt>
      <trkpt lat="42.72856" lon="1.54916">
        <ele>981.64331054688</ele>
        <time>2012-06-10T12:41:17Z</time>
      </trkpt>
      <trkpt lat="42.72858" lon="1.54916">
        <ele>982.1240234375</ele>
        <time>2012-06-10T12:41:19Z</time>
      </trkpt>
      <trkpt lat="42.72863" lon="1.54912">
        <ele>981.64331054688</ele>
        <time>2012-06-10T12:41:24Z</time>
      </trkpt>
      <trkpt lat="42.72869" lon="1.5491">
        <ele>981.16284179688</ele>
        <time>2012-06-10T12:41:29Z</time>
      </trkpt>
      <trkpt lat="42.72873" lon="1.54911">
        <ele>979.720703125</ele>
        <time>2012-06-10T12:41:33Z</time>
      </trkpt>
      <trkpt lat="42.72877" lon="1.54907">
        <ele>978.27880859375</ele>
        <time>2012-06-10T12:41:37Z</time>
      </trkpt>
      <trkpt lat="42.72882" lon="1.54898">
        <ele>991.25659179688</ele>
        <time>2012-06-10T12:42:04Z</time>
      </trkpt>
      <trkpt lat="42.72887" lon="1.54897">
        <ele>988.37280273438</ele>
        <time>2012-06-10T12:42:09Z</time>
      </trkpt>
      <trkpt lat="42.72891" lon="1.54897">
        <ele>983.08520507812</ele>
        <time>2012-06-10T12:42:13Z</time>
      </trkpt>
      <trkpt lat="42.72897" lon="1.54897">
        <ele>977.31762695312</ele>
        <time>2012-06-10T12:42:18Z</time>
      </trkpt>
      <trkpt lat="42.72904" lon="1.54896">
        <ele>974.91430664062</ele>
        <time>2012-06-10T12:42:24Z</time>
      </trkpt>
      <trkpt lat="42.7291" lon="1.54895">
        <ele>972.51098632812</ele>
        <time>2012-06-10T12:42:30Z</time>
      </trkpt>
      <trkpt lat="42.72919" lon="1.54898">
        <ele>967.7041015625</ele>
        <time>2012-06-10T12:42:37Z</time>
      </trkpt>
      <trkpt lat="42.72926" lon="1.54903">
        <ele>965.78173828125</ele>
        <time>2012-06-10T12:42:41Z</time>
      </trkpt>
      <trkpt lat="42.72927" lon="1.54908">
        <ele>964.8203125</ele>
        <time>2012-06-10T12:42:43Z</time>
      </trkpt>
      <trkpt lat="42.72931" lon="1.54918">
        <ele>964.33959960938</ele>
        <time>2012-06-10T12:42:49Z</time>
      </trkpt>
      <trkpt lat="42.72934" lon="1.54921">
        <ele>963.85888671875</ele>
        <time>2012-06-10T12:42:53Z</time>
      </trkpt>
      <trkpt lat="42.7294" lon="1.54924">
        <ele>962.89770507812</ele>
        <time>2012-06-10T12:42:58Z</time>
      </trkpt>
      <trkpt lat="42.72947" lon="1.54927">
        <ele>960.49438476562</ele>
        <time>2012-06-10T12:43:03Z</time>
      </trkpt>
      <trkpt lat="42.7295" lon="1.54931">
        <ele>956.16845703125</ele>
        <time>2012-06-10T12:43:08Z</time>
      </trkpt>
      <trkpt lat="42.72955" lon="1.54936">
        <ele>953.28442382812</ele>
        <time>2012-06-10T12:43:13Z</time>
      </trkpt>
      <trkpt lat="42.72959" lon="1.54946">
        <ele>955.68774414062</ele>
        <time>2012-06-10T12:43:19Z</time>
      </trkpt>
      <trkpt lat="42.72959" lon="1.54953">
        <ele>959.533203125</ele>
        <time>2012-06-10T12:43:23Z</time>
      </trkpt>
      <trkpt lat="42.72963" lon="1.54957">
        <ele>959.05249023438</ele>
        <time>2012-06-10T12:43:28Z</time>
      </trkpt>
      <trkpt lat="42.72968" lon="1.54954">
        <ele>956.16845703125</ele>
        <time>2012-06-10T12:43:36Z</time>
      </trkpt>
      <trkpt lat="42.72971" lon="1.54958">
        <ele>953.76513671875</ele>
        <time>2012-06-10T12:43:40Z</time>
      </trkpt>
      <trkpt lat="42.72975" lon="1.54966">
        <ele>952.32299804688</ele>
        <time>2012-06-10T12:43:45Z</time>
      </trkpt>
      <trkpt lat="42.72978" lon="1.54972">
        <ele>953.28442382812</ele>
        <time>2012-06-10T12:43:48Z</time>
      </trkpt>
      <trkpt lat="42.72981" lon="1.54983">
        <ele>954.72631835938</ele>
        <time>2012-06-10T12:43:53Z</time>
      </trkpt>
      <trkpt lat="42.72984" lon="1.54989">
        <ele>951.36181640625</ele>
        <time>2012-06-10T12:43:59Z</time>
      </trkpt>
      <trkpt lat="42.72987" lon="1.54991">
        <ele>950.40063476562</ele>
        <time>2012-06-10T12:44:02Z</time>
      </trkpt>
      <trkpt lat="42.72991" lon="1.54992">
        <ele>950.88110351562</ele>
        <time>2012-06-10T12:44:06Z</time>
      </trkpt>
      <trkpt lat="42.72994" lon="1.54987">
        <ele>945.59399414062</ele>
        <time>2012-06-10T12:44:13Z</time>
      </trkpt>
      <trkpt lat="42.72994" lon="1.54977">
        <ele>940.78735351562</ele>
        <time>2012-06-10T12:44:20Z</time>
      </trkpt>
      <trkpt lat="42.72995" lon="1.54974">
        <ele>940.30688476562</ele>
        <time>2012-06-10T12:44:22Z</time>
      </trkpt>
      <trkpt lat="42.72998" lon="1.54972">
        <ele>940.78735351562</ele>
        <time>2012-06-10T12:44:28Z</time>
      </trkpt>
      <trkpt lat="42.73003" lon="1.54965">
        <ele>944.15209960938</ele>
        <time>2012-06-10T12:44:33Z</time>
      </trkpt>
      <trkpt lat="42.73006" lon="1.54963">
        <ele>943.19067382812</ele>
        <time>2012-06-10T12:44:37Z</time>
      </trkpt>
      <trkpt lat="42.73008" lon="1.54957">
        <ele>940.30688476562</ele>
        <time>2012-06-10T12:44:42Z</time>
      </trkpt>
      <trkpt lat="42.73009" lon="1.5495">
        <ele>938.38403320312</ele>
        <time>2012-06-10T12:44:46Z</time>
      </trkpt>
      <trkpt lat="42.73009" lon="1.54943">
        <ele>938.38403320312</ele>
        <time>2012-06-10T12:44:50Z</time>
      </trkpt>
      <trkpt lat="42.73012" lon="1.54929">
        <ele>939.34521484375</ele>
        <time>2012-06-10T12:44:58Z</time>
      </trkpt>
      <trkpt lat="42.73014" lon="1.54923">
        <ele>941.74877929688</ele>
        <time>2012-06-10T12:45:02Z</time>
      </trkpt>
      <trkpt lat="42.73023" lon="1.54926">
        <ele>937.9033203125</ele>
        <time>2012-06-10T12:45:09Z</time>
      </trkpt>
      <trkpt lat="42.73024" lon="1.54927">
        <ele>937.42260742188</ele>
        <time>2012-06-10T12:45:10Z</time>
      </trkpt>
      <trkpt lat="42.7303" lon="1.54933">
        <ele>935.01953125</ele>
        <time>2012-06-10T12:45:15Z</time>
      </trkpt>
      <trkpt lat="42.73036" lon="1.54934">
        <ele>934.05810546875</ele>
        <time>2012-06-10T12:45:19Z</time>
      </trkpt>
      <trkpt lat="42.73042" lon="1.54939">
        <ele>931.17431640625</ele>
        <time>2012-06-10T12:45:24Z</time>
      </trkpt>
      <trkpt lat="42.73044" lon="1.54941">
        <ele>929.25146484375</ele>
        <time>2012-06-10T12:45:27Z</time>
      </trkpt>
      <trkpt lat="42.73048" lon="1.54953">
        <ele>926.84838867188</ele>
        <time>2012-06-10T12:45:35Z</time>
      </trkpt>
    </trkseg>
  </trk>
</gpx>